<?xml version="1.0" encoding="UTF-8" standalone="no" ?>
<gpx xmlns="http://www.topografix.com/GPX/1/1" xmlns:xsi="http://www.w3.org/2001/XMLSchema-instance" xsi:schemaLocation="http://www.topografix.com/GPX/1/1 http://www.topografix.com/GPX/1/1/gpx.xsd" version="1.1" creator="VisuGPX - https://www.visugpx.com">
  <metadata>
    <name>Angers Savennières St Jean de Linières</name>
    <desc><![CDATA[Région d'Angers]]></desc>
  </metadata>
  <trk>
    <name><![CDATA[Angers Savennières St Jean de Linières_1]]></name>
    <extensions>
      <line xmlns="http://www.topografix.com/GPX/gpx_style/0/2">
        <color>0000FF</color>
        <width>4</width>
      </line>
    </extensions>
    <trkseg>
      <trkpt lat="47.46846" lon="-0.59155">
        <ele>27.4</ele>
        <time>2021-03-12T19:25:34Z</time>
      </trkpt>
      <trkpt lat="47.46841" lon="-0.59143">
        <ele>27</ele>
        <time>2021-03-12T19:25:35Z</time>
      </trkpt>
      <trkpt lat="47.46824" lon="-0.59116">
        <ele>27.4</ele>
        <time>2021-03-12T19:25:39Z</time>
      </trkpt>
      <trkpt lat="47.46817" lon="-0.59099">
        <ele>27</ele>
        <time>2021-03-12T19:25:41Z</time>
      </trkpt>
      <trkpt lat="47.46814" lon="-0.59095">
        <ele>26.6</ele>
        <time>2021-03-12T19:25:42Z</time>
      </trkpt>
      <trkpt lat="47.46809" lon="-0.59096">
        <ele>26.8</ele>
        <time>2021-03-12T19:25:43Z</time>
      </trkpt>
      <trkpt lat="47.46724" lon="-0.59159">
        <ele>25.8</ele>
        <time>2021-03-12T19:25:58Z</time>
      </trkpt>
      <trkpt lat="47.46642" lon="-0.59208">
        <ele>23.4</ele>
        <time>2021-03-12T19:26:12Z</time>
      </trkpt>
      <trkpt lat="47.46634" lon="-0.59207">
        <ele>23.4</ele>
        <time>2021-03-12T19:26:13Z</time>
      </trkpt>
      <trkpt lat="47.46631" lon="-0.59202">
        <ele>23.2</ele>
        <time>2021-03-12T19:26:14Z</time>
      </trkpt>
      <trkpt lat="47.4663" lon="-0.59189">
        <ele>23.2</ele>
        <time>2021-03-12T19:26:15Z</time>
      </trkpt>
      <trkpt lat="47.46634" lon="-0.59177">
        <ele>23.2</ele>
        <time>2021-03-12T19:26:17Z</time>
      </trkpt>
      <trkpt lat="47.46646" lon="-0.59161">
        <ele>22.8</ele>
        <time>2021-03-12T19:26:20Z</time>
      </trkpt>
      <trkpt lat="47.46667" lon="-0.59125">
        <ele>21.4</ele>
        <time>2021-03-12T19:26:25Z</time>
      </trkpt>
      <trkpt lat="47.46672" lon="-0.59097">
        <ele>20.4</ele>
        <time>2021-03-12T19:26:28Z</time>
      </trkpt>
      <trkpt lat="47.46693" lon="-0.59051">
        <ele>20.6</ele>
        <time>2021-03-12T19:26:34Z</time>
      </trkpt>
      <trkpt lat="47.46724" lon="-0.58941">
        <ele>25.2</ele>
        <time>2021-03-12T19:26:47Z</time>
      </trkpt>
      <trkpt lat="47.46735" lon="-0.58926">
        <ele>25.8</ele>
        <time>2021-03-12T19:26:49Z</time>
      </trkpt>
      <trkpt lat="47.46759" lon="-0.58909">
        <ele>26.4</ele>
        <time>2021-03-12T19:26:53Z</time>
      </trkpt>
      <trkpt lat="47.46784" lon="-0.58887">
        <ele>26.8</ele>
        <time>2021-03-12T19:26:58Z</time>
      </trkpt>
      <trkpt lat="47.46798" lon="-0.58868">
        <ele>26.2</ele>
        <time>2021-03-12T19:27:01Z</time>
      </trkpt>
      <trkpt lat="47.46792" lon="-0.58857">
        <ele>26.2</ele>
        <time>2021-03-12T19:27:03Z</time>
      </trkpt>
      <trkpt lat="47.46705" lon="-0.58744">
        <ele>20.8</ele>
        <time>2021-03-12T19:27:21Z</time>
      </trkpt>
      <trkpt lat="47.46696" lon="-0.58713">
        <ele>20.4</ele>
        <time>2021-03-12T19:27:25Z</time>
      </trkpt>
      <trkpt lat="47.46697" lon="-0.58678">
        <ele>21.6</ele>
        <time>2021-03-12T19:27:29Z</time>
      </trkpt>
      <trkpt lat="47.46705" lon="-0.58625">
        <ele>21.6</ele>
        <time>2021-03-12T19:27:35Z</time>
      </trkpt>
      <trkpt lat="47.46707" lon="-0.58534">
        <ele>21.4</ele>
        <time>2021-03-12T19:27:45Z</time>
      </trkpt>
      <trkpt lat="47.46712" lon="-0.58527">
        <ele>21.4</ele>
        <time>2021-03-12T19:27:46Z</time>
      </trkpt>
      <trkpt lat="47.46731" lon="-0.58517">
        <ele>21.4</ele>
        <time>2021-03-12T19:27:49Z</time>
      </trkpt>
      <trkpt lat="47.46786" lon="-0.58461">
        <ele>21.4</ele>
        <time>2021-03-12T19:28:00Z</time>
      </trkpt>
      <trkpt lat="47.46798" lon="-0.58443">
        <ele>23.2</ele>
        <time>2021-03-12T19:28:02Z</time>
      </trkpt>
      <trkpt lat="47.46805" lon="-0.58409">
        <ele>25</ele>
        <time>2021-03-12T19:28:06Z</time>
      </trkpt>
      <trkpt lat="47.46804" lon="-0.58384">
        <ele>24.4</ele>
        <time>2021-03-12T19:28:09Z</time>
      </trkpt>
      <trkpt lat="47.46794" lon="-0.5837">
        <ele>23.2</ele>
        <time>2021-03-12T19:28:11Z</time>
      </trkpt>
      <trkpt lat="47.46793" lon="-0.58351">
        <ele>21.6</ele>
        <time>2021-03-12T19:28:13Z</time>
      </trkpt>
      <trkpt lat="47.46807" lon="-0.58314">
        <ele>18.6</ele>
        <time>2021-03-12T19:28:18Z</time>
      </trkpt>
      <trkpt lat="47.46807" lon="-0.58305">
        <ele>18</ele>
        <time>2021-03-12T19:28:19Z</time>
      </trkpt>
      <trkpt lat="47.46796" lon="-0.58277">
        <ele>18.4</ele>
        <time>2021-03-12T19:28:22Z</time>
      </trkpt>
      <trkpt lat="47.46764" lon="-0.58231">
        <ele>18.2</ele>
        <time>2021-03-12T19:28:29Z</time>
      </trkpt>
      <trkpt lat="47.46718" lon="-0.58254">
        <ele>19</ele>
        <time>2021-03-12T19:28:37Z</time>
      </trkpt>
      <trkpt lat="47.46701" lon="-0.58211">
        <ele>17.8</ele>
        <time>2021-03-12T19:28:43Z</time>
      </trkpt>
      <trkpt lat="47.46709" lon="-0.5817">
        <ele>18.2</ele>
        <time>2021-03-12T19:28:47Z</time>
      </trkpt>
      <trkpt lat="47.46734" lon="-0.58124">
        <ele>20.2</ele>
        <time>2021-03-12T19:28:54Z</time>
      </trkpt>
      <trkpt lat="47.46738" lon="-0.58095">
        <ele>20.4</ele>
        <time>2021-03-12T19:28:57Z</time>
      </trkpt>
      <trkpt lat="47.46705" lon="-0.58015">
        <ele>19.8</ele>
        <time>2021-03-12T19:29:07Z</time>
      </trkpt>
      <trkpt lat="47.46709" lon="-0.57972">
        <ele>20.4</ele>
        <time>2021-03-12T19:29:12Z</time>
      </trkpt>
      <trkpt lat="47.4669" lon="-0.57944">
        <ele>18.6</ele>
        <time>2021-03-12T19:29:16Z</time>
      </trkpt>
      <trkpt lat="47.46667" lon="-0.57951">
        <ele>17.8</ele>
        <time>2021-03-12T19:29:20Z</time>
      </trkpt>
      <trkpt lat="47.46647" lon="-0.57966">
        <ele>16.6</ele>
        <time>2021-03-12T19:29:23Z</time>
      </trkpt>
      <trkpt lat="47.46626" lon="-0.5797">
        <ele>17.2</ele>
        <time>2021-03-12T19:29:27Z</time>
      </trkpt>
      <trkpt lat="47.46606" lon="-0.57946">
        <ele>19.4</ele>
        <time>2021-03-12T19:29:31Z</time>
      </trkpt>
      <trkpt lat="47.46601" lon="-0.57944">
        <ele>20</ele>
        <time>2021-03-12T19:29:32Z</time>
      </trkpt>
      <trkpt lat="47.46591" lon="-0.57945">
        <ele>21.2</ele>
        <time>2021-03-12T19:29:33Z</time>
      </trkpt>
      <trkpt lat="47.46537" lon="-0.57963">
        <ele>23.8</ele>
        <time>2021-03-12T19:29:42Z</time>
      </trkpt>
      <trkpt lat="47.46522" lon="-0.5796">
        <ele>24.4</ele>
        <time>2021-03-12T19:29:45Z</time>
      </trkpt>
      <trkpt lat="47.465" lon="-0.57949">
        <ele>24</ele>
        <time>2021-03-12T19:29:48Z</time>
      </trkpt>
      <trkpt lat="47.4649" lon="-0.57947">
        <ele>22.8</ele>
        <time>2021-03-12T19:29:50Z</time>
      </trkpt>
      <trkpt lat="47.46468" lon="-0.57953">
        <ele>20</ele>
        <time>2021-03-12T19:29:53Z</time>
      </trkpt>
      <trkpt lat="47.46447" lon="-0.57968">
        <ele>19.6</ele>
        <time>2021-03-12T19:29:57Z</time>
      </trkpt>
      <trkpt lat="47.46445" lon="-0.57981">
        <ele>20.2</ele>
        <time>2021-03-12T19:29:59Z</time>
      </trkpt>
      <trkpt lat="47.46465" lon="-0.58">
        <ele>20.2</ele>
        <time>2021-03-12T19:30:02Z</time>
      </trkpt>
      <trkpt lat="47.46484" lon="-0.58052">
        <ele>19</ele>
        <time>2021-03-12T19:30:09Z</time>
      </trkpt>
      <trkpt lat="47.46492" lon="-0.58096">
        <ele>21.2</ele>
        <time>2021-03-12T19:30:14Z</time>
      </trkpt>
      <trkpt lat="47.46489" lon="-0.58133">
        <ele>21.2</ele>
        <time>2021-03-12T19:30:18Z</time>
      </trkpt>
      <trkpt lat="47.46478" lon="-0.58198">
        <ele>19.2</ele>
        <time>2021-03-12T19:30:25Z</time>
      </trkpt>
      <trkpt lat="47.46478" lon="-0.5826">
        <ele>19</ele>
        <time>2021-03-12T19:30:32Z</time>
      </trkpt>
      <trkpt lat="47.46474" lon="-0.5828">
        <ele>18.2</ele>
        <time>2021-03-12T19:30:34Z</time>
      </trkpt>
      <trkpt lat="47.46478" lon="-0.58346">
        <ele>18</ele>
        <time>2021-03-12T19:30:41Z</time>
      </trkpt>
      <trkpt lat="47.46475" lon="-0.58406">
        <ele>19.8</ele>
        <time>2021-03-12T19:30:48Z</time>
      </trkpt>
      <trkpt lat="47.46459" lon="-0.58424">
        <ele>21.2</ele>
        <time>2021-03-12T19:30:51Z</time>
      </trkpt>
      <trkpt lat="47.46419" lon="-0.58455">
        <ele>22.6</ele>
        <time>2021-03-12T19:30:58Z</time>
      </trkpt>
      <trkpt lat="47.46337" lon="-0.5854">
        <ele>22.2</ele>
        <time>2021-03-12T19:31:14Z</time>
      </trkpt>
      <trkpt lat="47.46275" lon="-0.58623">
        <ele>19.8</ele>
        <time>2021-03-12T19:31:28Z</time>
      </trkpt>
      <trkpt lat="47.46265" lon="-0.5864">
        <ele>18.4</ele>
        <time>2021-03-12T19:31:30Z</time>
      </trkpt>
      <trkpt lat="47.46247" lon="-0.58657">
        <ele>17</ele>
        <time>2021-03-12T19:31:34Z</time>
      </trkpt>
      <trkpt lat="47.46232" lon="-0.58662">
        <ele>16.2</ele>
        <time>2021-03-12T19:31:36Z</time>
      </trkpt>
      <trkpt lat="47.46212" lon="-0.58688">
        <ele>16</ele>
        <time>2021-03-12T19:31:40Z</time>
      </trkpt>
      <trkpt lat="47.4617" lon="-0.5881">
        <ele>16.4</ele>
        <time>2021-03-12T19:31:55Z</time>
      </trkpt>
      <trkpt lat="47.46167" lon="-0.589">
        <ele>17</ele>
        <time>2021-03-12T19:32:05Z</time>
      </trkpt>
      <trkpt lat="47.46149" lon="-0.58976">
        <ele>18.2</ele>
        <time>2021-03-12T19:32:14Z</time>
      </trkpt>
      <trkpt lat="47.46146" lon="-0.59018">
        <ele>20.6</ele>
        <time>2021-03-12T19:32:18Z</time>
      </trkpt>
      <trkpt lat="47.46149" lon="-0.59045">
        <ele>22.4</ele>
        <time>2021-03-12T19:32:21Z</time>
      </trkpt>
      <trkpt lat="47.46184" lon="-0.59109">
        <ele>17</ele>
        <time>2021-03-12T19:32:30Z</time>
      </trkpt>
      <trkpt lat="47.46199" lon="-0.59181">
        <ele>17.4</ele>
        <time>2021-03-12T19:32:38Z</time>
      </trkpt>
      <trkpt lat="47.46198" lon="-0.5919">
        <ele>17.8</ele>
        <time>2021-03-12T19:32:39Z</time>
      </trkpt>
      <trkpt lat="47.46193" lon="-0.59198">
        <ele>18</ele>
        <time>2021-03-12T19:32:41Z</time>
      </trkpt>
      <trkpt lat="47.46177" lon="-0.59204">
        <ele>19.4</ele>
        <time>2021-03-12T19:32:43Z</time>
      </trkpt>
      <trkpt lat="47.4613" lon="-0.59229">
        <ele>22.2</ele>
        <time>2021-03-12T19:32:51Z</time>
      </trkpt>
      <trkpt lat="47.46056" lon="-0.59237">
        <ele>22</ele>
        <time>2021-03-12T19:33:03Z</time>
      </trkpt>
      <trkpt lat="47.45994" lon="-0.59249">
        <ele>16.8</ele>
        <time>2021-03-12T19:33:13Z</time>
      </trkpt>
      <trkpt lat="47.45976" lon="-0.59263">
        <ele>17.8</ele>
        <time>2021-03-12T19:33:16Z</time>
      </trkpt>
      <trkpt lat="47.45955" lon="-0.59294">
        <ele>20.8</ele>
        <time>2021-03-12T19:33:21Z</time>
      </trkpt>
      <trkpt lat="47.45933" lon="-0.59348">
        <ele>19.8</ele>
        <time>2021-03-12T19:33:28Z</time>
      </trkpt>
      <trkpt lat="47.45912" lon="-0.59384">
        <ele>20.2</ele>
        <time>2021-03-12T19:33:33Z</time>
      </trkpt>
      <trkpt lat="47.45919" lon="-0.59445">
        <ele>20</ele>
        <time>2021-03-12T19:33:40Z</time>
      </trkpt>
      <trkpt lat="47.45913" lon="-0.59452">
        <ele>19.9</ele>
      </trkpt>
      <trkpt lat="47.45912" lon="-0.59458">
        <ele>19.8</ele>
      </trkpt>
      <trkpt lat="47.4591" lon="-0.59465">
        <ele>19.8</ele>
      </trkpt>
      <trkpt lat="47.45908" lon="-0.59471">
        <ele>19.7</ele>
      </trkpt>
      <trkpt lat="47.45905" lon="-0.59476">
        <ele>19.6</ele>
      </trkpt>
      <trkpt lat="47.45902" lon="-0.59482">
        <ele>19.7</ele>
      </trkpt>
      <trkpt lat="47.45898" lon="-0.59486">
        <ele>19.7</ele>
      </trkpt>
      <trkpt lat="47.45894" lon="-0.59491">
        <ele>19.7</ele>
      </trkpt>
      <trkpt lat="47.45887" lon="-0.59496">
        <ele>19.8</ele>
      </trkpt>
      <trkpt lat="47.45871" lon="-0.59506">
        <ele>19.5</ele>
      </trkpt>
      <trkpt lat="47.45847" lon="-0.59521">
        <ele>19.6</ele>
      </trkpt>
      <trkpt lat="47.45828" lon="-0.59529">
        <ele>19.8</ele>
      </trkpt>
      <trkpt lat="47.45823" lon="-0.59532">
        <ele>19.7</ele>
      </trkpt>
      <trkpt lat="47.45819" lon="-0.59534">
        <ele>19.6</ele>
      </trkpt>
      <trkpt lat="47.45807" lon="-0.59539">
        <ele>19.4</ele>
      </trkpt>
      <trkpt lat="47.45785" lon="-0.59544">
        <ele>19.6</ele>
      </trkpt>
      <trkpt lat="47.45773" lon="-0.59548">
        <ele>19.7</ele>
      </trkpt>
      <trkpt lat="47.45769" lon="-0.59549">
        <ele>19.8</ele>
      </trkpt>
      <trkpt lat="47.45763" lon="-0.5955">
        <ele>19.8</ele>
      </trkpt>
      <trkpt lat="47.45752" lon="-0.59551">
        <ele>19.8</ele>
      </trkpt>
      <trkpt lat="47.45744" lon="-0.59551">
        <ele>19.8</ele>
      </trkpt>
      <trkpt lat="47.45743" lon="-0.59551">
        <ele>19.8</ele>
      </trkpt>
      <trkpt lat="47.45734" lon="-0.59549">
        <ele>19.5</ele>
      </trkpt>
      <trkpt lat="47.45712" lon="-0.59543">
        <ele>19.2</ele>
      </trkpt>
      <trkpt lat="47.45697" lon="-0.59539">
        <ele>19.7</ele>
      </trkpt>
      <trkpt lat="47.45685" lon="-0.59534">
        <ele>20</ele>
      </trkpt>
      <trkpt lat="47.45675" lon="-0.59529">
        <ele>20.4</ele>
      </trkpt>
      <trkpt lat="47.45665" lon="-0.5952">
        <ele>20.2</ele>
      </trkpt>
      <trkpt lat="47.45656" lon="-0.59511">
        <ele>19.9</ele>
      </trkpt>
      <trkpt lat="47.4565" lon="-0.59501">
        <ele>19.8</ele>
      </trkpt>
      <trkpt lat="47.45644" lon="-0.59493">
        <ele>19.7</ele>
      </trkpt>
      <trkpt lat="47.4564" lon="-0.59486">
        <ele>19.4</ele>
      </trkpt>
      <trkpt lat="47.45634" lon="-0.59479">
        <ele>19.1</ele>
      </trkpt>
      <trkpt lat="47.45628" lon="-0.59471">
        <ele>19.1</ele>
      </trkpt>
      <trkpt lat="47.45622" lon="-0.59466">
        <ele>19.4</ele>
      </trkpt>
      <trkpt lat="47.45616" lon="-0.59459">
        <ele>19.5</ele>
      </trkpt>
      <trkpt lat="47.45609" lon="-0.59455">
        <ele>19.9</ele>
      </trkpt>
      <trkpt lat="47.45601" lon="-0.59452">
        <ele>20.1</ele>
      </trkpt>
      <trkpt lat="47.45593" lon="-0.5945">
        <ele>20.4</ele>
      </trkpt>
      <trkpt lat="47.45585" lon="-0.59449">
        <ele>20.9</ele>
      </trkpt>
      <trkpt lat="47.4558" lon="-0.5944">
        <ele>17.8</ele>
        <time>2021-03-12T19:39:34Z</time>
      </trkpt>
      <trkpt lat="47.45569" lon="-0.59416">
        <ele>16.8</ele>
        <time>2021-03-12T19:39:37Z</time>
      </trkpt>
      <trkpt lat="47.4556" lon="-0.59402">
        <ele>15.8</ele>
        <time>2021-03-12T19:39:39Z</time>
      </trkpt>
      <trkpt lat="47.45535" lon="-0.59408">
        <ele>17.6</ele>
        <time>2021-03-12T19:39:43Z</time>
      </trkpt>
      <trkpt lat="47.45532" lon="-0.59411">
        <ele>18.2</ele>
        <time>2021-03-12T19:39:44Z</time>
      </trkpt>
      <trkpt lat="47.45505" lon="-0.59399">
        <ele>19.6</ele>
        <time>2021-03-12T19:39:48Z</time>
      </trkpt>
      <trkpt lat="47.45486" lon="-0.59395">
        <ele>20.4</ele>
        <time>2021-03-12T19:39:51Z</time>
      </trkpt>
      <trkpt lat="47.45452" lon="-0.59382">
        <ele>20.4</ele>
        <time>2021-03-12T19:39:57Z</time>
      </trkpt>
      <trkpt lat="47.45386" lon="-0.59381">
        <ele>18.4</ele>
        <time>2021-03-12T19:40:08Z</time>
      </trkpt>
      <trkpt lat="47.45346" lon="-0.59392">
        <ele>18</ele>
        <time>2021-03-12T19:40:14Z</time>
      </trkpt>
      <trkpt lat="47.45292" lon="-0.59402">
        <ele>19.4</ele>
        <time>2021-03-12T19:40:23Z</time>
      </trkpt>
      <trkpt lat="47.45275" lon="-0.59396">
        <ele>19.2</ele>
        <time>2021-03-12T19:40:26Z</time>
      </trkpt>
      <trkpt lat="47.45264" lon="-0.59405">
        <ele>19.4</ele>
        <time>2021-03-12T19:40:28Z</time>
      </trkpt>
      <trkpt lat="47.45244" lon="-0.59429">
        <ele>19.8</ele>
        <time>2021-03-12T19:40:32Z</time>
      </trkpt>
      <trkpt lat="47.45221" lon="-0.59435">
        <ele>19.4</ele>
        <time>2021-03-12T19:40:35Z</time>
      </trkpt>
      <trkpt lat="47.45219" lon="-0.59432">
        <ele>19.6</ele>
        <time>2021-03-12T19:40:36Z</time>
      </trkpt>
      <trkpt lat="47.45199" lon="-0.59423">
        <ele>20.6</ele>
        <time>2021-03-12T19:40:39Z</time>
      </trkpt>
      <trkpt lat="47.4518" lon="-0.59425">
        <ele>21.2</ele>
        <time>2021-03-12T19:40:42Z</time>
      </trkpt>
      <trkpt lat="47.45175" lon="-0.59433">
        <ele>21.2</ele>
        <time>2021-03-12T19:40:44Z</time>
      </trkpt>
      <trkpt lat="47.45157" lon="-0.59421">
        <ele>22.2</ele>
        <time>2021-03-12T19:40:47Z</time>
      </trkpt>
      <trkpt lat="47.45134" lon="-0.59424">
        <ele>22.8</ele>
        <time>2021-03-12T19:40:50Z</time>
      </trkpt>
      <trkpt lat="47.45122" lon="-0.59406">
        <ele>22</ele>
        <time>2021-03-12T19:40:53Z</time>
      </trkpt>
      <trkpt lat="47.45055" lon="-0.59281">
        <ele>19</ele>
        <time>2021-03-12T19:41:10Z</time>
      </trkpt>
      <trkpt lat="47.45044" lon="-0.59263">
        <ele>18.2</ele>
        <time>2021-03-12T19:41:13Z</time>
      </trkpt>
      <trkpt lat="47.4504" lon="-0.59262">
        <ele>18.6</ele>
        <time>2021-03-12T19:41:14Z</time>
      </trkpt>
      <trkpt lat="47.45032" lon="-0.59273">
        <ele>19.4</ele>
        <time>2021-03-12T19:41:15Z</time>
      </trkpt>
      <trkpt lat="47.44995" lon="-0.59344">
        <ele>22.8</ele>
        <time>2021-03-12T19:41:25Z</time>
      </trkpt>
      <trkpt lat="47.44975" lon="-0.59388">
        <ele>25</ele>
        <time>2021-03-12T19:41:31Z</time>
      </trkpt>
      <trkpt lat="47.44945" lon="-0.59438">
        <ele>21.8</ele>
        <time>2021-03-12T19:41:38Z</time>
      </trkpt>
      <trkpt lat="47.44928" lon="-0.59459">
        <ele>24.2</ele>
        <time>2021-03-12T19:41:42Z</time>
      </trkpt>
      <trkpt lat="47.44882" lon="-0.59492">
        <ele>27.4</ele>
        <time>2021-03-12T19:41:50Z</time>
      </trkpt>
      <trkpt lat="47.44629" lon="-0.59593">
        <ele>27.6</ele>
        <time>2021-03-12T19:42:32Z</time>
      </trkpt>
      <trkpt lat="47.44549" lon="-0.59643">
        <ele>26.6</ele>
        <time>2021-03-12T19:42:46Z</time>
      </trkpt>
      <trkpt lat="47.44482" lon="-0.59693">
        <ele>19.2</ele>
        <time>2021-03-12T19:42:58Z</time>
      </trkpt>
      <trkpt lat="47.44473" lon="-0.59703">
        <ele>18.4</ele>
        <time>2021-03-12T19:43:00Z</time>
      </trkpt>
      <trkpt lat="47.44455" lon="-0.5971">
        <ele>17.8</ele>
        <time>2021-03-12T19:43:03Z</time>
      </trkpt>
      <trkpt lat="47.44446" lon="-0.59724">
        <ele>19</ele>
        <time>2021-03-12T19:43:05Z</time>
      </trkpt>
      <trkpt lat="47.4435" lon="-0.59801">
        <ele>20.2</ele>
        <time>2021-03-12T19:43:22Z</time>
      </trkpt>
      <trkpt lat="47.44044" lon="-0.60093">
        <ele>19.2</ele>
        <time>2021-03-12T19:44:21Z</time>
      </trkpt>
      <trkpt lat="47.44024" lon="-0.60119">
        <ele>18.4</ele>
        <time>2021-03-12T19:44:25Z</time>
      </trkpt>
      <trkpt lat="47.44031" lon="-0.60132">
        <ele>16.6</ele>
        <time>2021-03-12T19:44:27Z</time>
      </trkpt>
      <trkpt lat="47.4407" lon="-0.60233">
        <ele>15.4</ele>
        <time>2021-03-12T19:44:39Z</time>
      </trkpt>
      <trkpt lat="47.44088" lon="-0.60294">
        <ele>18.2</ele>
        <time>2021-03-12T19:44:46Z</time>
      </trkpt>
      <trkpt lat="47.44119" lon="-0.6037">
        <ele>20.6</ele>
        <time>2021-03-12T19:44:56Z</time>
      </trkpt>
      <trkpt lat="47.44143" lon="-0.60412">
        <ele>23.2</ele>
        <time>2021-03-12T19:45:02Z</time>
      </trkpt>
      <trkpt lat="47.44166" lon="-0.60474">
        <ele>29</ele>
        <time>2021-03-12T19:45:10Z</time>
      </trkpt>
      <trkpt lat="47.44177" lon="-0.60539">
        <ele>30.2</ele>
        <time>2021-03-12T19:45:17Z</time>
      </trkpt>
      <trkpt lat="47.4419" lon="-0.60587">
        <ele>30</ele>
        <time>2021-03-12T19:45:23Z</time>
      </trkpt>
      <trkpt lat="47.44191" lon="-0.60612">
        <ele>29.2</ele>
        <time>2021-03-12T19:45:25Z</time>
      </trkpt>
      <trkpt lat="47.44196" lon="-0.60636">
        <ele>30.8</ele>
        <time>2021-03-12T19:45:28Z</time>
      </trkpt>
      <trkpt lat="47.44202" lon="-0.60718">
        <ele>31.4</ele>
        <time>2021-03-12T19:45:37Z</time>
      </trkpt>
      <trkpt lat="47.442" lon="-0.60745">
        <ele>31.8</ele>
        <time>2021-03-12T19:45:40Z</time>
      </trkpt>
      <trkpt lat="47.44172" lon="-0.60775">
        <ele>31.2</ele>
        <time>2021-03-12T19:45:46Z</time>
      </trkpt>
      <trkpt lat="47.44153" lon="-0.60802">
        <ele>31</ele>
        <time>2021-03-12T19:45:50Z</time>
      </trkpt>
      <trkpt lat="47.44131" lon="-0.60813">
        <ele>31.2</ele>
        <time>2021-03-12T19:45:53Z</time>
      </trkpt>
      <trkpt lat="47.44123" lon="-0.60809">
        <ele>31.6</ele>
        <time>2021-03-12T19:45:55Z</time>
      </trkpt>
      <trkpt lat="47.44094" lon="-0.60813">
        <ele>33.2</ele>
        <time>2021-03-12T19:45:59Z</time>
      </trkpt>
      <trkpt lat="47.44022" lon="-0.60849">
        <ele>35.2</ele>
        <time>2021-03-12T19:46:12Z</time>
      </trkpt>
      <trkpt lat="47.4399" lon="-0.60855">
        <ele>37.6</ele>
        <time>2021-03-12T19:46:17Z</time>
      </trkpt>
      <trkpt lat="47.43955" lon="-0.6088">
        <ele>41.6</ele>
        <time>2021-03-12T19:46:23Z</time>
      </trkpt>
      <trkpt lat="47.43864" lon="-0.60933">
        <ele>50.2</ele>
        <time>2021-03-12T19:46:39Z</time>
      </trkpt>
      <trkpt lat="47.43862" lon="-0.60942">
        <ele>50.6</ele>
        <time>2021-03-12T19:46:40Z</time>
      </trkpt>
      <trkpt lat="47.43877" lon="-0.61005">
        <ele>50.2</ele>
        <time>2021-03-12T19:46:47Z</time>
      </trkpt>
      <trkpt lat="47.43886" lon="-0.61056">
        <ele>50</ele>
        <time>2021-03-12T19:46:53Z</time>
      </trkpt>
      <trkpt lat="47.43905" lon="-0.61132">
        <ele>52.2</ele>
        <time>2021-03-12T19:47:02Z</time>
      </trkpt>
      <trkpt lat="47.43941" lon="-0.61221">
        <ele>55</ele>
        <time>2021-03-12T19:47:13Z</time>
      </trkpt>
      <trkpt lat="47.44017" lon="-0.61368">
        <ele>57.4</ele>
        <time>2021-03-12T19:47:33Z</time>
      </trkpt>
      <trkpt lat="47.44049" lon="-0.61469">
        <ele>61.8</ele>
        <time>2021-03-12T19:47:45Z</time>
      </trkpt>
      <trkpt lat="47.44086" lon="-0.61597">
        <ele>57.6</ele>
        <time>2021-03-12T19:48:00Z</time>
      </trkpt>
      <trkpt lat="47.44104" lon="-0.61636">
        <ele>56.4</ele>
        <time>2021-03-12T19:48:05Z</time>
      </trkpt>
      <trkpt lat="47.44121" lon="-0.61656">
        <ele>54.6</ele>
        <time>2021-03-12T19:48:09Z</time>
      </trkpt>
      <trkpt lat="47.44138" lon="-0.61663">
        <ele>54</ele>
        <time>2021-03-12T19:48:11Z</time>
      </trkpt>
      <trkpt lat="47.44154" lon="-0.61694">
        <ele>55.4</ele>
        <time>2021-03-12T19:48:16Z</time>
      </trkpt>
      <trkpt lat="47.44177" lon="-0.61765">
        <ele>59.4</ele>
        <time>2021-03-12T19:48:24Z</time>
      </trkpt>
      <trkpt lat="47.44172" lon="-0.6179">
        <ele>60.6</ele>
        <time>2021-03-12T19:48:27Z</time>
      </trkpt>
      <trkpt lat="47.44162" lon="-0.61806">
        <ele>60.8</ele>
        <time>2021-03-12T19:48:29Z</time>
      </trkpt>
      <trkpt lat="47.441" lon="-0.61877">
        <ele>62</ele>
        <time>2021-03-12T19:48:42Z</time>
      </trkpt>
      <trkpt lat="47.44061" lon="-0.61933">
        <ele>63.4</ele>
        <time>2021-03-12T19:48:51Z</time>
      </trkpt>
      <trkpt lat="47.44" lon="-0.62046">
        <ele>67</ele>
        <time>2021-03-12T19:49:06Z</time>
      </trkpt>
      <trkpt lat="47.43953" lon="-0.6212">
        <ele>66</ele>
        <time>2021-03-12T19:49:17Z</time>
      </trkpt>
      <trkpt lat="47.43881" lon="-0.62207">
        <ele>68</ele>
        <time>2021-03-12T19:49:32Z</time>
      </trkpt>
      <trkpt lat="47.43856" lon="-0.62231">
        <ele>68.2</ele>
        <time>2021-03-12T19:49:37Z</time>
      </trkpt>
      <trkpt lat="47.43795" lon="-0.62309">
        <ele>69</ele>
        <time>2021-03-12T19:49:50Z</time>
      </trkpt>
      <trkpt lat="47.4379" lon="-0.6232">
        <ele>68.6</ele>
        <time>2021-03-12T19:49:52Z</time>
      </trkpt>
      <trkpt lat="47.43743" lon="-0.62392">
        <ele>68.8</ele>
        <time>2021-03-12T19:50:02Z</time>
      </trkpt>
      <trkpt lat="47.43706" lon="-0.62442">
        <ele>66.6</ele>
        <time>2021-03-12T19:50:10Z</time>
      </trkpt>
      <trkpt lat="47.43679" lon="-0.62485">
        <ele>65.6</ele>
        <time>2021-03-12T19:50:17Z</time>
      </trkpt>
      <trkpt lat="47.43629" lon="-0.62531">
        <ele>61.4</ele>
        <time>2021-03-12T19:50:26Z</time>
      </trkpt>
      <trkpt lat="47.43613" lon="-0.6255">
        <ele>60.2</ele>
        <time>2021-03-12T19:50:29Z</time>
      </trkpt>
      <trkpt lat="47.4357" lon="-0.62615">
        <ele>58.6</ele>
        <time>2021-03-12T19:50:39Z</time>
      </trkpt>
      <trkpt lat="47.43528" lon="-0.62656">
        <ele>56.2</ele>
        <time>2021-03-12T19:50:47Z</time>
      </trkpt>
      <trkpt lat="47.43452" lon="-0.62755">
        <ele>54.2</ele>
        <time>2021-03-12T19:51:04Z</time>
      </trkpt>
      <trkpt lat="47.43417" lon="-0.62794">
        <ele>55.6</ele>
        <time>2021-03-12T19:51:11Z</time>
      </trkpt>
      <trkpt lat="47.4339" lon="-0.62817">
        <ele>54.2</ele>
        <time>2021-03-12T19:51:16Z</time>
      </trkpt>
      <trkpt lat="47.43363" lon="-0.62824">
        <ele>52</ele>
        <time>2021-03-12T19:51:20Z</time>
      </trkpt>
      <trkpt lat="47.43204" lon="-0.62844">
        <ele>35</ele>
        <time>2021-03-12T19:51:46Z</time>
      </trkpt>
      <trkpt lat="47.43139" lon="-0.62859">
        <ele>23.4</ele>
        <time>2021-03-12T19:51:56Z</time>
      </trkpt>
      <trkpt lat="47.43126" lon="-0.62858">
        <ele>22.8</ele>
        <time>2021-03-12T19:51:58Z</time>
      </trkpt>
      <trkpt lat="47.43108" lon="-0.62849">
        <ele>22</ele>
        <time>2021-03-12T19:52:01Z</time>
      </trkpt>
      <trkpt lat="47.43102" lon="-0.62849">
        <ele>22.2</ele>
        <time>2021-03-12T19:52:02Z</time>
      </trkpt>
      <trkpt lat="47.43032" lon="-0.6286">
        <ele>25</ele>
        <time>2021-03-12T19:52:13Z</time>
      </trkpt>
      <trkpt lat="47.43007" lon="-0.62866">
        <ele>24.4</ele>
        <time>2021-03-12T19:52:18Z</time>
      </trkpt>
      <trkpt lat="47.42933" lon="-0.62906">
        <ele>26.8</ele>
        <time>2021-03-12T19:52:30Z</time>
      </trkpt>
      <trkpt lat="47.42897" lon="-0.62942">
        <ele>28.6</ele>
        <time>2021-03-12T19:52:37Z</time>
      </trkpt>
      <trkpt lat="47.42875" lon="-0.62978">
        <ele>29</ele>
        <time>2021-03-12T19:52:42Z</time>
      </trkpt>
      <trkpt lat="47.42849" lon="-0.63003">
        <ele>30</ele>
        <time>2021-03-12T19:52:47Z</time>
      </trkpt>
      <trkpt lat="47.42815" lon="-0.63015">
        <ele>30.6</ele>
        <time>2021-03-12T19:52:53Z</time>
      </trkpt>
      <trkpt lat="47.428" lon="-0.63012">
        <ele>31.2</ele>
        <time>2021-03-12T19:52:55Z</time>
      </trkpt>
      <trkpt lat="47.42791" lon="-0.63005">
        <ele>31.6</ele>
        <time>2021-03-12T19:52:57Z</time>
      </trkpt>
      <trkpt lat="47.42784" lon="-0.62995">
        <ele>31.4</ele>
        <time>2021-03-12T19:52:59Z</time>
      </trkpt>
      <trkpt lat="47.42748" lon="-0.62958">
        <ele>32</ele>
        <time>2021-03-12T19:53:06Z</time>
      </trkpt>
      <trkpt lat="47.42735" lon="-0.62951">
        <ele>32.4</ele>
        <time>2021-03-12T19:53:08Z</time>
      </trkpt>
      <trkpt lat="47.42721" lon="-0.62953">
        <ele>33</ele>
        <time>2021-03-12T19:53:10Z</time>
      </trkpt>
      <trkpt lat="47.42652" lon="-0.62994">
        <ele>32.6</ele>
        <time>2021-03-12T19:53:22Z</time>
      </trkpt>
      <trkpt lat="47.42648" lon="-0.63005">
        <ele>32.4</ele>
        <time>2021-03-12T19:53:23Z</time>
      </trkpt>
      <trkpt lat="47.4265" lon="-0.63025">
        <ele>33</ele>
        <time>2021-03-12T19:53:26Z</time>
      </trkpt>
      <trkpt lat="47.42698" lon="-0.6324">
        <ele>39.6</ele>
        <time>2021-03-12T19:53:50Z</time>
      </trkpt>
      <trkpt lat="47.4273" lon="-0.63345">
        <ele>41</ele>
        <time>2021-03-12T19:54:03Z</time>
      </trkpt>
      <trkpt lat="47.42796" lon="-0.63472">
        <ele>38.6</ele>
        <time>2021-03-12T19:54:20Z</time>
      </trkpt>
      <trkpt lat="47.42791" lon="-0.6348">
        <ele>39</ele>
        <time>2021-03-12T19:54:21Z</time>
      </trkpt>
      <trkpt lat="47.42702" lon="-0.63538">
        <ele>44.6</ele>
        <time>2021-03-12T19:54:37Z</time>
      </trkpt>
      <trkpt lat="47.42677" lon="-0.63796">
        <ele>49</ele>
        <time>2021-03-12T19:55:05Z</time>
      </trkpt>
      <trkpt lat="47.42677" lon="-0.63904">
        <ele>46.4</ele>
        <time>2021-03-12T19:55:17Z</time>
      </trkpt>
      <trkpt lat="47.42666" lon="-0.63994">
        <ele>46</ele>
        <time>2021-03-12T19:55:27Z</time>
      </trkpt>
      <trkpt lat="47.42657" lon="-0.64022">
        <ele>45.4</ele>
        <time>2021-03-12T19:55:30Z</time>
      </trkpt>
      <trkpt lat="47.42649" lon="-0.64022">
        <ele>45.4</ele>
        <time>2021-03-12T19:55:31Z</time>
      </trkpt>
      <trkpt lat="47.42557" lon="-0.63811">
        <ele>51</ele>
        <time>2021-03-12T19:55:59Z</time>
      </trkpt>
      <trkpt lat="47.42515" lon="-0.63723">
        <ele>52.2</ele>
        <time>2021-03-12T19:56:10Z</time>
      </trkpt>
      <trkpt lat="47.42512" lon="-0.6372">
        <ele>52</ele>
        <time>2021-03-12T19:56:11Z</time>
      </trkpt>
      <trkpt lat="47.42504" lon="-0.6372">
        <ele>51.4</ele>
        <time>2021-03-12T19:56:12Z</time>
      </trkpt>
      <trkpt lat="47.42325" lon="-0.63908">
        <ele>46.8</ele>
        <time>2021-03-12T19:56:47Z</time>
      </trkpt>
      <trkpt lat="47.42237" lon="-0.64003">
        <ele>44</ele>
        <time>2021-03-12T19:57:05Z</time>
      </trkpt>
      <trkpt lat="47.42174" lon="-0.64075">
        <ele>41.4</ele>
        <time>2021-03-12T19:57:18Z</time>
      </trkpt>
      <trkpt lat="47.42099" lon="-0.64147">
        <ele>37.4</ele>
        <time>2021-03-12T19:57:32Z</time>
      </trkpt>
      <trkpt lat="47.42" lon="-0.64224">
        <ele>34</ele>
        <time>2021-03-12T19:57:50Z</time>
      </trkpt>
      <trkpt lat="47.41948" lon="-0.64282">
        <ele>34.8</ele>
        <time>2021-03-12T19:58:00Z</time>
      </trkpt>
      <trkpt lat="47.41914" lon="-0.64324">
        <ele>37</ele>
        <time>2021-03-12T19:58:07Z</time>
      </trkpt>
      <trkpt lat="47.41874" lon="-0.64359">
        <ele>40.2</ele>
        <time>2021-03-12T19:58:15Z</time>
      </trkpt>
      <trkpt lat="47.41792" lon="-0.64392">
        <ele>41</ele>
        <time>2021-03-12T19:58:29Z</time>
      </trkpt>
      <trkpt lat="47.41709" lon="-0.64422">
        <ele>42</ele>
        <time>2021-03-12T19:58:42Z</time>
      </trkpt>
      <trkpt lat="47.4164" lon="-0.64485">
        <ele>41</ele>
        <time>2021-03-12T19:58:55Z</time>
      </trkpt>
      <trkpt lat="47.41522" lon="-0.64586">
        <ele>44</ele>
        <time>2021-03-12T19:59:17Z</time>
      </trkpt>
      <trkpt lat="47.41518" lon="-0.64598">
        <ele>44.4</ele>
        <time>2021-03-12T19:59:19Z</time>
      </trkpt>
      <trkpt lat="47.41515" lon="-0.64626">
        <ele>45</ele>
        <time>2021-03-12T19:59:22Z</time>
      </trkpt>
      <trkpt lat="47.4152" lon="-0.64655">
        <ele>45.8</ele>
        <time>2021-03-12T19:59:25Z</time>
      </trkpt>
      <trkpt lat="47.41599" lon="-0.64778">
        <ele>45.2</ele>
        <time>2021-03-12T19:59:43Z</time>
      </trkpt>
      <trkpt lat="47.41632" lon="-0.64877">
        <ele>45.8</ele>
        <time>2021-03-12T19:59:55Z</time>
      </trkpt>
      <trkpt lat="47.41668" lon="-0.65022">
        <ele>49</ele>
        <time>2021-03-12T20:00:12Z</time>
      </trkpt>
      <trkpt lat="47.41692" lon="-0.65151">
        <ele>54.2</ele>
        <time>2021-03-12T20:00:27Z</time>
      </trkpt>
      <trkpt lat="47.41693" lon="-0.65193">
        <ele>55</ele>
        <time>2021-03-12T20:00:31Z</time>
      </trkpt>
      <trkpt lat="47.41678" lon="-0.65194">
        <ele>53.4</ele>
        <time>2021-03-12T20:00:34Z</time>
      </trkpt>
      <trkpt lat="47.4167" lon="-0.65197">
        <ele>52.6</ele>
        <time>2021-03-12T20:00:35Z</time>
      </trkpt>
      <trkpt lat="47.41593" lon="-0.65243">
        <ele>51.2</ele>
        <time>2021-03-12T20:00:48Z</time>
      </trkpt>
      <trkpt lat="47.41543" lon="-0.65266">
        <ele>52</ele>
        <time>2021-03-12T20:00:57Z</time>
      </trkpt>
      <trkpt lat="47.41527" lon="-0.65266">
        <ele>52</ele>
        <time>2021-03-12T20:00:59Z</time>
      </trkpt>
      <trkpt lat="47.41515" lon="-0.65261">
        <ele>51.6</ele>
        <time>2021-03-12T20:01:01Z</time>
      </trkpt>
      <trkpt lat="47.41475" lon="-0.65229">
        <ele>50.8</ele>
        <time>2021-03-12T20:01:08Z</time>
      </trkpt>
      <trkpt lat="47.4147" lon="-0.6523">
        <ele>51</ele>
        <time>2021-03-12T20:01:09Z</time>
      </trkpt>
      <trkpt lat="47.41461" lon="-0.65255">
        <ele>51.6</ele>
        <time>2021-03-12T20:01:12Z</time>
      </trkpt>
      <trkpt lat="47.41449" lon="-0.65255">
        <ele>52.4</ele>
        <time>2021-03-12T20:01:14Z</time>
      </trkpt>
      <trkpt lat="47.41407" lon="-0.65217">
        <ele>54.4</ele>
        <time>2021-03-12T20:01:22Z</time>
      </trkpt>
      <trkpt lat="47.4137" lon="-0.65192">
        <ele>53.8</ele>
        <time>2021-03-12T20:01:29Z</time>
      </trkpt>
      <trkpt lat="47.41258" lon="-0.65128">
        <ele>59.8</ele>
        <time>2021-03-12T20:01:48Z</time>
      </trkpt>
      <trkpt lat="47.41219" lon="-0.65097">
        <ele>59.6</ele>
        <time>2021-03-12T20:01:55Z</time>
      </trkpt>
      <trkpt lat="47.41191" lon="-0.6506">
        <ele>59</ele>
        <time>2021-03-12T20:02:01Z</time>
      </trkpt>
      <trkpt lat="47.41132" lon="-0.65005">
        <ele>59.4</ele>
        <time>2021-03-12T20:02:12Z</time>
      </trkpt>
      <trkpt lat="47.41064" lon="-0.65004">
        <ele>62.6</ele>
        <time>2021-03-12T20:02:23Z</time>
      </trkpt>
      <trkpt lat="47.41023" lon="-0.64999">
        <ele>65</ele>
        <time>2021-03-12T20:02:30Z</time>
      </trkpt>
      <trkpt lat="47.40992" lon="-0.64988">
        <ele>65.4</ele>
        <time>2021-03-12T20:02:35Z</time>
      </trkpt>
      <trkpt lat="47.40918" lon="-0.64952">
        <ele>66.2</ele>
        <time>2021-03-12T20:02:47Z</time>
      </trkpt>
      <trkpt lat="47.40864" lon="-0.64939">
        <ele>65.6</ele>
        <time>2021-03-12T20:02:56Z</time>
      </trkpt>
      <trkpt lat="47.40845" lon="-0.64808">
        <ele>64</ele>
        <time>2021-03-12T20:03:10Z</time>
      </trkpt>
      <trkpt lat="47.40837" lon="-0.64667">
        <ele>64.2</ele>
        <time>2021-03-12T20:03:26Z</time>
      </trkpt>
      <trkpt lat="47.40834" lon="-0.64472">
        <ele>63.8</ele>
        <time>2021-03-12T20:03:47Z</time>
      </trkpt>
      <trkpt lat="47.40822" lon="-0.64355">
        <ele>62</ele>
        <time>2021-03-12T20:04:00Z</time>
      </trkpt>
      <trkpt lat="47.40816" lon="-0.6435">
        <ele>62</ele>
        <time>2021-03-12T20:04:01Z</time>
      </trkpt>
      <trkpt lat="47.40781" lon="-0.6442">
        <ele>64.8</ele>
        <time>2021-03-12T20:04:10Z</time>
      </trkpt>
      <trkpt lat="47.40743" lon="-0.64479">
        <ele>65</ele>
        <time>2021-03-12T20:04:19Z</time>
      </trkpt>
      <trkpt lat="47.40695" lon="-0.64704">
        <ele>60.4</ele>
        <time>2021-03-12T20:04:45Z</time>
      </trkpt>
      <trkpt lat="47.40655" lon="-0.6477">
        <ele>61</ele>
        <time>2021-03-12T20:04:55Z</time>
      </trkpt>
      <trkpt lat="47.40613" lon="-0.64852">
        <ele>59</ele>
        <time>2021-03-12T20:05:06Z</time>
      </trkpt>
      <trkpt lat="47.40597" lon="-0.64869">
        <ele>59.4</ele>
        <time>2021-03-12T20:05:09Z</time>
      </trkpt>
      <trkpt lat="47.40568" lon="-0.64885">
        <ele>60.4</ele>
        <time>2021-03-12T20:05:14Z</time>
      </trkpt>
      <trkpt lat="47.4052" lon="-0.6492">
        <ele>61.2</ele>
        <time>2021-03-12T20:05:22Z</time>
      </trkpt>
      <trkpt lat="47.40477" lon="-0.6494">
        <ele>63.4</ele>
        <time>2021-03-12T20:05:30Z</time>
      </trkpt>
      <trkpt lat="47.40443" lon="-0.64964">
        <ele>65.6</ele>
        <time>2021-03-12T20:05:36Z</time>
      </trkpt>
      <trkpt lat="47.404" lon="-0.64999">
        <ele>69.8</ele>
        <time>2021-03-12T20:05:44Z</time>
      </trkpt>
      <trkpt lat="47.40326" lon="-0.65046">
        <ele>69.8</ele>
        <time>2021-03-12T20:05:56Z</time>
      </trkpt>
      <trkpt lat="47.40308" lon="-0.65053">
        <ele>69.8</ele>
        <time>2021-03-12T20:05:59Z</time>
      </trkpt>
      <trkpt lat="47.40306" lon="-0.65051">
        <ele>69.6</ele>
        <time>2021-03-12T20:06:00Z</time>
      </trkpt>
      <trkpt lat="47.40245" lon="-0.64934">
        <ele>67.2</ele>
        <time>2021-03-12T20:06:16Z</time>
      </trkpt>
      <trkpt lat="47.40174" lon="-0.64788">
        <ele>64.2</ele>
        <time>2021-03-12T20:06:35Z</time>
      </trkpt>
      <trkpt lat="47.40135" lon="-0.64684">
        <ele>63</ele>
        <time>2021-03-12T20:06:48Z</time>
      </trkpt>
      <trkpt lat="47.4011" lon="-0.6461">
        <ele>62</ele>
        <time>2021-03-12T20:06:57Z</time>
      </trkpt>
      <trkpt lat="47.401" lon="-0.64601">
        <ele>62.4</ele>
        <time>2021-03-12T20:06:59Z</time>
      </trkpt>
      <trkpt lat="47.39989" lon="-0.64632">
        <ele>63.2</ele>
        <time>2021-03-12T20:07:17Z</time>
      </trkpt>
      <trkpt lat="47.39909" lon="-0.64667">
        <ele>63.2</ele>
        <time>2021-03-12T20:07:31Z</time>
      </trkpt>
      <trkpt lat="47.39849" lon="-0.6469">
        <ele>66.6</ele>
        <time>2021-03-12T20:07:41Z</time>
      </trkpt>
      <trkpt lat="47.39838" lon="-0.64689">
        <ele>66.6</ele>
        <time>2021-03-12T20:07:42Z</time>
      </trkpt>
      <trkpt lat="47.39732" lon="-0.64699">
        <ele>63.6</ele>
        <time>2021-03-12T20:07:59Z</time>
      </trkpt>
      <trkpt lat="47.39715" lon="-0.64696">
        <ele>63.8</ele>
        <time>2021-03-12T20:08:02Z</time>
      </trkpt>
      <trkpt lat="47.39684" lon="-0.64706">
        <ele>62.8</ele>
        <time>2021-03-12T20:08:07Z</time>
      </trkpt>
      <trkpt lat="47.39688" lon="-0.64712">
        <ele>63.2</ele>
        <time>2021-03-12T20:08:08Z</time>
      </trkpt>
      <trkpt lat="47.39706" lon="-0.64719">
        <ele>64</ele>
        <time>2021-03-12T20:08:11Z</time>
      </trkpt>
      <trkpt lat="47.3975" lon="-0.64762">
        <ele>63.8</ele>
        <time>2021-03-12T20:08:20Z</time>
      </trkpt>
      <trkpt lat="47.39765" lon="-0.64797">
        <ele>64</ele>
        <time>2021-03-12T20:08:24Z</time>
      </trkpt>
      <trkpt lat="47.39764" lon="-0.64816">
        <ele>64.2</ele>
        <time>2021-03-12T20:08:26Z</time>
      </trkpt>
      <trkpt lat="47.39724" lon="-0.6487">
        <ele>64.6</ele>
        <time>2021-03-12T20:08:35Z</time>
      </trkpt>
      <trkpt lat="47.39672" lon="-0.64965">
        <ele>62</ele>
        <time>2021-03-12T20:08:48Z</time>
      </trkpt>
      <trkpt lat="47.39632" lon="-0.6503">
        <ele>62.4</ele>
        <time>2021-03-12T20:08:58Z</time>
      </trkpt>
      <trkpt lat="47.39603" lon="-0.65072">
        <ele>60</ele>
        <time>2021-03-12T20:09:04Z</time>
      </trkpt>
      <trkpt lat="47.39575" lon="-0.65093">
        <ele>55.4</ele>
        <time>2021-03-12T20:09:09Z</time>
      </trkpt>
      <trkpt lat="47.39547" lon="-0.65102">
        <ele>53</ele>
        <time>2021-03-12T20:09:14Z</time>
      </trkpt>
      <trkpt lat="47.39509" lon="-0.65129">
        <ele>50</ele>
        <time>2021-03-12T20:09:21Z</time>
      </trkpt>
      <trkpt lat="47.39497" lon="-0.65118">
        <ele>50</ele>
        <time>2021-03-12T20:09:23Z</time>
      </trkpt>
      <trkpt lat="47.39478" lon="-0.65087">
        <ele>50.6</ele>
        <time>2021-03-12T20:09:27Z</time>
      </trkpt>
      <trkpt lat="47.3946" lon="-0.65069">
        <ele>50</ele>
        <time>2021-03-12T20:09:31Z</time>
      </trkpt>
      <trkpt lat="47.39438" lon="-0.65034">
        <ele>48.4</ele>
        <time>2021-03-12T20:09:36Z</time>
      </trkpt>
      <trkpt lat="47.39425" lon="-0.65018">
        <ele>48.2</ele>
        <time>2021-03-12T20:09:39Z</time>
      </trkpt>
      <trkpt lat="47.39408" lon="-0.64989">
        <ele>48.8</ele>
        <time>2021-03-12T20:09:43Z</time>
      </trkpt>
      <trkpt lat="47.39371" lon="-0.64984">
        <ele>49</ele>
        <time>2021-03-12T20:09:49Z</time>
      </trkpt>
      <trkpt lat="47.39357" lon="-0.64999">
        <ele>48.4</ele>
        <time>2021-03-12T20:09:52Z</time>
      </trkpt>
      <trkpt lat="47.39285" lon="-0.65037">
        <ele>48.8</ele>
        <time>2021-03-12T20:10:04Z</time>
      </trkpt>
      <trkpt lat="47.3926" lon="-0.65018">
        <ele>47.8</ele>
        <time>2021-03-12T20:10:08Z</time>
      </trkpt>
      <trkpt lat="47.39232" lon="-0.64973">
        <ele>45</ele>
        <time>2021-03-12T20:10:15Z</time>
      </trkpt>
      <trkpt lat="47.39215" lon="-0.64925">
        <ele>42.4</ele>
        <time>2021-03-12T20:10:21Z</time>
      </trkpt>
      <trkpt lat="47.39202" lon="-0.64902">
        <ele>41.6</ele>
        <time>2021-03-12T20:10:24Z</time>
      </trkpt>
      <trkpt lat="47.39176" lon="-0.64866">
        <ele>40</ele>
        <time>2021-03-12T20:10:30Z</time>
      </trkpt>
      <trkpt lat="47.39164" lon="-0.64864">
        <ele>40</ele>
        <time>2021-03-12T20:10:32Z</time>
      </trkpt>
      <trkpt lat="47.3909" lon="-0.64864">
        <ele>35.8</ele>
        <time>2021-03-12T20:10:44Z</time>
      </trkpt>
      <trkpt lat="47.39019" lon="-0.64811">
        <ele>33.8</ele>
        <time>2021-03-12T20:10:56Z</time>
      </trkpt>
      <trkpt lat="47.38993" lon="-0.64789">
        <ele>32</ele>
        <time>2021-03-12T20:11:01Z</time>
      </trkpt>
      <trkpt lat="47.3896" lon="-0.64773">
        <ele>30</ele>
        <time>2021-03-12T20:11:07Z</time>
      </trkpt>
      <trkpt lat="47.38955" lon="-0.64775">
        <ele>29.8</ele>
        <time>2021-03-12T20:11:08Z</time>
      </trkpt>
      <trkpt lat="47.3894" lon="-0.64774">
        <ele>29</ele>
        <time>2021-03-12T20:11:10Z</time>
      </trkpt>
      <trkpt lat="47.38921" lon="-0.64766">
        <ele>29.2</ele>
        <time>2021-03-12T20:11:13Z</time>
      </trkpt>
      <trkpt lat="47.38895" lon="-0.64723">
        <ele>32.2</ele>
        <time>2021-03-12T20:11:19Z</time>
      </trkpt>
      <trkpt lat="47.38806" lon="-0.64663">
        <ele>30.2</ele>
        <time>2021-03-12T20:11:35Z</time>
      </trkpt>
      <trkpt lat="47.3876" lon="-0.64621">
        <ele>27.4</ele>
        <time>2021-03-12T20:11:44Z</time>
      </trkpt>
      <trkpt lat="47.3873" lon="-0.64583">
        <ele>27</ele>
        <time>2021-03-12T20:11:50Z</time>
      </trkpt>
      <trkpt lat="47.38653" lon="-0.64525">
        <ele>23.2</ele>
        <time>2021-03-12T20:12:04Z</time>
      </trkpt>
      <trkpt lat="47.38683" lon="-0.64383">
        <ele>22.8</ele>
        <time>2021-03-12T20:12:20Z</time>
      </trkpt>
      <trkpt lat="47.38687" lon="-0.64351">
        <ele>22.2</ele>
        <time>2021-03-12T20:12:24Z</time>
      </trkpt>
      <trkpt lat="47.3871" lon="-0.64249">
        <ele>21.6</ele>
        <time>2021-03-12T20:12:35Z</time>
      </trkpt>
      <trkpt lat="47.3874" lon="-0.64153">
        <ele>21.6</ele>
        <time>2021-03-12T20:12:47Z</time>
      </trkpt>
      <trkpt lat="47.38734" lon="-0.64155">
        <ele>21</ele>
        <time>2021-03-12T20:12:48Z</time>
      </trkpt>
      <trkpt lat="47.38718" lon="-0.6414">
        <ele>19.8</ele>
        <time>2021-03-12T20:12:51Z</time>
      </trkpt>
      <trkpt lat="47.38715" lon="-0.6414">
        <ele>19.6</ele>
        <time>2021-03-12T20:12:52Z</time>
      </trkpt>
      <trkpt lat="47.38707" lon="-0.64148">
        <ele>19.4</ele>
        <time>2021-03-12T20:12:53Z</time>
      </trkpt>
      <trkpt lat="47.38635" lon="-0.64301">
        <ele>20</ele>
        <time>2021-03-12T20:13:14Z</time>
      </trkpt>
      <trkpt lat="47.38625" lon="-0.64318">
        <ele>19.6</ele>
        <time>2021-03-12T20:13:16Z</time>
      </trkpt>
      <trkpt lat="47.38599" lon="-0.64345">
        <ele>19</ele>
        <time>2021-03-12T20:13:21Z</time>
      </trkpt>
      <trkpt lat="47.38575" lon="-0.64405">
        <ele>18.6</ele>
        <time>2021-03-12T20:13:29Z</time>
      </trkpt>
      <trkpt lat="47.38555" lon="-0.64442">
        <ele>18</ele>
        <time>2021-03-12T20:13:34Z</time>
      </trkpt>
      <trkpt lat="47.38546" lon="-0.64437">
        <ele>17.8</ele>
        <time>2021-03-12T20:13:35Z</time>
      </trkpt>
      <trkpt lat="47.3851" lon="-0.64403">
        <ele>16.6</ele>
        <time>2021-03-12T20:13:42Z</time>
      </trkpt>
      <trkpt lat="47.385" lon="-0.64401">
        <ele>16.8</ele>
        <time>2021-03-12T20:13:44Z</time>
      </trkpt>
      <trkpt lat="47.3847" lon="-0.64423">
        <ele>16.8</ele>
        <time>2021-03-12T20:13:49Z</time>
      </trkpt>
      <trkpt lat="47.38421" lon="-0.64465">
        <ele>17</ele>
        <time>2021-03-12T20:13:58Z</time>
      </trkpt>
      <trkpt lat="47.38495" lon="-0.64403">
        <ele>16.8</ele>
        <time>2021-03-12T20:14:12Z</time>
      </trkpt>
      <trkpt lat="47.38504" lon="-0.644">
        <ele>16.8</ele>
        <time>2021-03-12T20:14:13Z</time>
      </trkpt>
      <trkpt lat="47.38513" lon="-0.64403">
        <ele>16.6</ele>
        <time>2021-03-12T20:14:15Z</time>
      </trkpt>
      <trkpt lat="47.38537" lon="-0.64423">
        <ele>17.4</ele>
        <time>2021-03-12T20:14:19Z</time>
      </trkpt>
      <trkpt lat="47.38566" lon="-0.64455">
        <ele>18.2</ele>
        <time>2021-03-12T20:14:25Z</time>
      </trkpt>
      <trkpt lat="47.38486" lon="-0.64634">
        <ele>16.2</ele>
        <time>2021-03-12T20:14:48Z</time>
      </trkpt>
      <trkpt lat="47.38312" lon="-0.65038">
        <ele>18.2</ele>
        <time>2021-03-12T20:15:40Z</time>
      </trkpt>
      <trkpt lat="47.38113" lon="-0.65515">
        <ele>19.2</ele>
        <time>2021-03-12T20:16:41Z</time>
      </trkpt>
      <trkpt lat="47.3811" lon="-0.65515">
        <ele>19</ele>
        <time>2021-03-12T20:16:42Z</time>
      </trkpt>
      <trkpt lat="47.38095" lon="-0.65503">
        <ele>18.6</ele>
        <time>2021-03-12T20:16:44Z</time>
      </trkpt>
      <trkpt lat="47.38038" lon="-0.65451">
        <ele>20.8</ele>
        <time>2021-03-12T20:16:55Z</time>
      </trkpt>
      <trkpt lat="47.3802" lon="-0.65446">
        <ele>19.4</ele>
        <time>2021-03-12T20:16:58Z</time>
      </trkpt>
      <trkpt lat="47.38022" lon="-0.6545">
        <ele>19.8</ele>
        <time>2021-03-12T20:16:59Z</time>
      </trkpt>
      <trkpt lat="47.38029" lon="-0.65457">
        <ele>20</ele>
        <time>2021-03-12T20:17:00Z</time>
      </trkpt>
      <trkpt lat="47.38043" lon="-0.65465">
        <ele>20.4</ele>
        <time>2021-03-12T20:17:02Z</time>
      </trkpt>
      <trkpt lat="47.38136" lon="-0.65533">
        <ele>20</ele>
        <time>2021-03-12T20:17:19Z</time>
      </trkpt>
      <trkpt lat="47.38177" lon="-0.65571">
        <ele>20.6</ele>
        <time>2021-03-12T20:17:27Z</time>
      </trkpt>
      <trkpt lat="47.38189" lon="-0.65589">
        <ele>20</ele>
        <time>2021-03-12T20:17:30Z</time>
      </trkpt>
      <trkpt lat="47.3827" lon="-0.65675">
        <ele>26.2</ele>
        <time>2021-03-12T20:17:46Z</time>
      </trkpt>
      <trkpt lat="47.38287" lon="-0.65704">
        <ele>27.6</ele>
        <time>2021-03-12T20:17:50Z</time>
      </trkpt>
      <trkpt lat="47.38294" lon="-0.657">
        <ele>27.2</ele>
        <time>2021-03-12T20:17:51Z</time>
      </trkpt>
      <trkpt lat="47.38289" lon="-0.65701">
        <ele>27.4</ele>
        <time>2021-03-12T20:17:52Z</time>
      </trkpt>
      <trkpt lat="47.38286" lon="-0.65709">
        <ele>27.6</ele>
        <time>2021-03-12T20:17:53Z</time>
      </trkpt>
      <trkpt lat="47.38278" lon="-0.65769">
        <ele>28.8</ele>
        <time>2021-03-12T20:17:59Z</time>
      </trkpt>
      <trkpt lat="47.3828" lon="-0.65772">
        <ele>28.8</ele>
        <time>2021-03-12T20:18:00Z</time>
      </trkpt>
      <trkpt lat="47.38308" lon="-0.65795">
        <ele>29.4</ele>
        <time>2021-03-12T20:18:05Z</time>
      </trkpt>
      <trkpt lat="47.38354" lon="-0.65826">
        <ele>31.6</ele>
        <time>2021-03-12T20:18:13Z</time>
      </trkpt>
      <trkpt lat="47.38408" lon="-0.65874">
        <ele>32.4</ele>
        <time>2021-03-12T20:18:23Z</time>
      </trkpt>
      <trkpt lat="47.38411" lon="-0.65873">
        <ele>32.2</ele>
        <time>2021-03-12T20:18:24Z</time>
      </trkpt>
      <trkpt lat="47.38415" lon="-0.6586">
        <ele>31.8</ele>
        <time>2021-03-12T20:18:25Z</time>
      </trkpt>
      <trkpt lat="47.38444" lon="-0.65832">
        <ele>30.8</ele>
        <time>2021-03-12T20:18:31Z</time>
      </trkpt>
      <trkpt lat="47.3848" lon="-0.6582">
        <ele>30.4</ele>
        <time>2021-03-12T20:18:37Z</time>
      </trkpt>
      <trkpt lat="47.38516" lon="-0.65813">
        <ele>30.8</ele>
        <time>2021-03-12T20:18:42Z</time>
      </trkpt>
      <trkpt lat="47.38601" lon="-0.6578">
        <ele>28.8</ele>
        <time>2021-03-12T20:18:57Z</time>
      </trkpt>
      <trkpt lat="47.38648" lon="-0.65771">
        <ele>34.8</ele>
        <time>2021-03-12T20:19:04Z</time>
      </trkpt>
      <trkpt lat="47.38684" lon="-0.65772">
        <ele>39.2</ele>
        <time>2021-03-12T20:19:10Z</time>
      </trkpt>
      <trkpt lat="47.38726" lon="-0.65819">
        <ele>44</ele>
        <time>2021-03-12T20:19:18Z</time>
      </trkpt>
      <trkpt lat="47.38745" lon="-0.65831">
        <ele>46.6</ele>
        <time>2021-03-12T20:19:22Z</time>
      </trkpt>
      <trkpt lat="47.38764" lon="-0.65836">
        <ele>48.8</ele>
        <time>2021-03-12T20:19:25Z</time>
      </trkpt>
      <trkpt lat="47.38806" lon="-0.65837">
        <ele>52.2</ele>
        <time>2021-03-12T20:19:31Z</time>
      </trkpt>
      <trkpt lat="47.38858" lon="-0.65843">
        <ele>56</ele>
        <time>2021-03-12T20:19:40Z</time>
      </trkpt>
      <trkpt lat="47.389" lon="-0.65852">
        <ele>58.6</ele>
        <time>2021-03-12T20:19:47Z</time>
      </trkpt>
      <trkpt lat="47.38944" lon="-0.65865">
        <ele>60</ele>
        <time>2021-03-12T20:19:54Z</time>
      </trkpt>
      <trkpt lat="47.38978" lon="-0.65859">
        <ele>60</ele>
        <time>2021-03-12T20:19:59Z</time>
      </trkpt>
      <trkpt lat="47.39" lon="-0.65826">
        <ele>60.2</ele>
        <time>2021-03-12T20:20:04Z</time>
      </trkpt>
      <trkpt lat="47.39025" lon="-0.65768">
        <ele>61</ele>
        <time>2021-03-12T20:20:12Z</time>
      </trkpt>
      <trkpt lat="47.39048" lon="-0.65696">
        <ele>59.2</ele>
        <time>2021-03-12T20:20:20Z</time>
      </trkpt>
      <trkpt lat="47.39051" lon="-0.65691">
        <ele>59</ele>
        <time>2021-03-12T20:20:21Z</time>
      </trkpt>
      <trkpt lat="47.39059" lon="-0.65688">
        <ele>59.2</ele>
        <time>2021-03-12T20:20:22Z</time>
      </trkpt>
      <trkpt lat="47.39063" lon="-0.65689">
        <ele>59.4</ele>
        <time>2021-03-12T20:20:23Z</time>
      </trkpt>
      <trkpt lat="47.39141" lon="-0.65755">
        <ele>61.2</ele>
        <time>2021-03-12T20:20:38Z</time>
      </trkpt>
      <trkpt lat="47.39199" lon="-0.65832">
        <ele>62</ele>
        <time>2021-03-12T20:20:50Z</time>
      </trkpt>
      <trkpt lat="47.39238" lon="-0.65922">
        <ele>64</ele>
        <time>2021-03-12T20:21:02Z</time>
      </trkpt>
      <trkpt lat="47.39271" lon="-0.66019">
        <ele>64.2</ele>
        <time>2021-03-12T20:21:13Z</time>
      </trkpt>
      <trkpt lat="47.39277" lon="-0.66018">
        <ele>64</ele>
        <time>2021-03-12T20:21:14Z</time>
      </trkpt>
      <trkpt lat="47.39331" lon="-0.65901">
        <ele>61.2</ele>
        <time>2021-03-12T20:21:30Z</time>
      </trkpt>
      <trkpt lat="47.39343" lon="-0.65892">
        <ele>61.4</ele>
        <time>2021-03-12T20:21:32Z</time>
      </trkpt>
      <trkpt lat="47.39368" lon="-0.65892">
        <ele>62.4</ele>
        <time>2021-03-12T20:21:36Z</time>
      </trkpt>
      <trkpt lat="47.39379" lon="-0.65888">
        <ele>62.8</ele>
        <time>2021-03-12T20:21:38Z</time>
      </trkpt>
      <trkpt lat="47.39383" lon="-0.65884">
        <ele>62.8</ele>
        <time>2021-03-12T20:21:39Z</time>
      </trkpt>
      <trkpt lat="47.39436" lon="-0.65742">
        <ele>58.6</ele>
        <time>2021-03-12T20:21:56Z</time>
      </trkpt>
      <trkpt lat="47.39473" lon="-0.65652">
        <ele>55.4</ele>
        <time>2021-03-12T20:22:08Z</time>
      </trkpt>
      <trkpt lat="47.39528" lon="-0.65572">
        <ele>53</ele>
        <time>2021-03-12T20:22:20Z</time>
      </trkpt>
      <trkpt lat="47.39538" lon="-0.65567">
        <ele>53</ele>
        <time>2021-03-12T20:22:22Z</time>
      </trkpt>
      <trkpt lat="47.39557" lon="-0.65579">
        <ele>53</ele>
        <time>2021-03-12T20:22:25Z</time>
      </trkpt>
      <trkpt lat="47.39562" lon="-0.65579">
        <ele>53</ele>
        <time>2021-03-12T20:22:26Z</time>
      </trkpt>
      <trkpt lat="47.3957" lon="-0.65574">
        <ele>53</ele>
        <time>2021-03-12T20:22:27Z</time>
      </trkpt>
      <trkpt lat="47.39582" lon="-0.65558">
        <ele>53</ele>
        <time>2021-03-12T20:22:30Z</time>
      </trkpt>
      <trkpt lat="47.39601" lon="-0.65525">
        <ele>53.2</ele>
        <time>2021-03-12T20:22:34Z</time>
      </trkpt>
      <trkpt lat="47.39623" lon="-0.6548">
        <ele>54.8</ele>
        <time>2021-03-12T20:22:40Z</time>
      </trkpt>
      <trkpt lat="47.39631" lon="-0.65474">
        <ele>55</ele>
        <time>2021-03-12T20:22:42Z</time>
      </trkpt>
      <trkpt lat="47.39637" lon="-0.65477">
        <ele>55</ele>
        <time>2021-03-12T20:22:43Z</time>
      </trkpt>
      <trkpt lat="47.39688" lon="-0.65537">
        <ele>57.6</ele>
        <time>2021-03-12T20:22:53Z</time>
      </trkpt>
      <trkpt lat="47.39717" lon="-0.65563">
        <ele>59.8</ele>
        <time>2021-03-12T20:22:59Z</time>
      </trkpt>
      <trkpt lat="47.39755" lon="-0.65581">
        <ele>62</ele>
        <time>2021-03-12T20:23:05Z</time>
      </trkpt>
      <trkpt lat="47.39814" lon="-0.65578">
        <ele>65.4</ele>
        <time>2021-03-12T20:23:15Z</time>
      </trkpt>
      <trkpt lat="47.3986" lon="-0.65556">
        <ele>67</ele>
        <time>2021-03-12T20:23:22Z</time>
      </trkpt>
      <trkpt lat="47.39897" lon="-0.65544">
        <ele>68.4</ele>
        <time>2021-03-12T20:23:28Z</time>
      </trkpt>
      <trkpt lat="47.39963" lon="-0.65526">
        <ele>70.8</ele>
        <time>2021-03-12T20:23:39Z</time>
      </trkpt>
      <trkpt lat="47.40019" lon="-0.65516">
        <ele>72.6</ele>
        <time>2021-03-12T20:23:48Z</time>
      </trkpt>
      <trkpt lat="47.40038" lon="-0.65522">
        <ele>72.4</ele>
        <time>2021-03-12T20:23:51Z</time>
      </trkpt>
      <trkpt lat="47.40119" lon="-0.65573">
        <ele>72.2</ele>
        <time>2021-03-12T20:24:05Z</time>
      </trkpt>
      <trkpt lat="47.40145" lon="-0.65576">
        <ele>72</ele>
        <time>2021-03-12T20:24:10Z</time>
      </trkpt>
      <trkpt lat="47.40166" lon="-0.65574">
        <ele>72.2</ele>
        <time>2021-03-12T20:24:13Z</time>
      </trkpt>
      <trkpt lat="47.40176" lon="-0.65581">
        <ele>72.6</ele>
        <time>2021-03-12T20:24:15Z</time>
      </trkpt>
      <trkpt lat="47.40259" lon="-0.65712">
        <ele>70.6</ele>
        <time>2021-03-12T20:24:34Z</time>
      </trkpt>
      <trkpt lat="47.40336" lon="-0.65805">
        <ele>67</ele>
        <time>2021-03-12T20:24:50Z</time>
      </trkpt>
      <trkpt lat="47.4051" lon="-0.66026">
        <ele>66.8</ele>
        <time>2021-03-12T20:25:27Z</time>
      </trkpt>
      <trkpt lat="47.40567" lon="-0.66111">
        <ele>68</ele>
        <time>2021-03-12T20:25:40Z</time>
      </trkpt>
      <trkpt lat="47.40573" lon="-0.66124">
        <ele>67.4</ele>
        <time>2021-03-12T20:25:42Z</time>
      </trkpt>
      <trkpt lat="47.40611" lon="-0.66171">
        <ele>66</ele>
        <time>2021-03-12T20:25:50Z</time>
      </trkpt>
      <trkpt lat="47.40622" lon="-0.66177">
        <ele>65.8</ele>
        <time>2021-03-12T20:25:51Z</time>
      </trkpt>
      <trkpt lat="47.40634" lon="-0.6618">
        <ele>66</ele>
        <time>2021-03-12T20:25:53Z</time>
      </trkpt>
      <trkpt lat="47.40702" lon="-0.66179">
        <ele>68</ele>
        <time>2021-03-12T20:26:04Z</time>
      </trkpt>
      <trkpt lat="47.40751" lon="-0.66173">
        <ele>71.2</ele>
        <time>2021-03-12T20:26:12Z</time>
      </trkpt>
      <trkpt lat="47.4089" lon="-0.66166">
        <ele>69.8</ele>
        <time>2021-03-12T20:26:34Z</time>
      </trkpt>
      <trkpt lat="47.40932" lon="-0.66139">
        <ele>69.6</ele>
        <time>2021-03-12T20:26:42Z</time>
      </trkpt>
      <trkpt lat="47.40957" lon="-0.66118">
        <ele>71</ele>
        <time>2021-03-12T20:26:46Z</time>
      </trkpt>
      <trkpt lat="47.40967" lon="-0.66113">
        <ele>71.8</ele>
        <time>2021-03-12T20:26:48Z</time>
      </trkpt>
      <trkpt lat="47.4107" lon="-0.66111">
        <ele>73.2</ele>
        <time>2021-03-12T20:27:05Z</time>
      </trkpt>
      <trkpt lat="47.41246" lon="-0.6621">
        <ele>73.6</ele>
        <time>2021-03-12T20:27:35Z</time>
      </trkpt>
      <trkpt lat="47.41348" lon="-0.66263">
        <ele>74.6</ele>
        <time>2021-03-12T20:27:52Z</time>
      </trkpt>
      <trkpt lat="47.41483" lon="-0.66414">
        <ele>66.4</ele>
        <time>2021-03-12T20:28:19Z</time>
      </trkpt>
      <trkpt lat="47.41534" lon="-0.66466">
        <ele>62.6</ele>
        <time>2021-03-12T20:28:29Z</time>
      </trkpt>
      <trkpt lat="47.41545" lon="-0.66484">
        <ele>63</ele>
        <time>2021-03-12T20:28:32Z</time>
      </trkpt>
      <trkpt lat="47.41557" lon="-0.66514">
        <ele>63</ele>
        <time>2021-03-12T20:28:36Z</time>
      </trkpt>
      <trkpt lat="47.41615" lon="-0.66621">
        <ele>63.2</ele>
        <time>2021-03-12T20:28:50Z</time>
      </trkpt>
      <trkpt lat="47.41691" lon="-0.66718">
        <ele>65</ele>
        <time>2021-03-12T20:29:06Z</time>
      </trkpt>
      <trkpt lat="47.41767" lon="-0.6683">
        <ele>68.8</ele>
        <time>2021-03-12T20:29:24Z</time>
      </trkpt>
      <trkpt lat="47.41865" lon="-0.67073">
        <ele>71</ele>
        <time>2021-03-12T20:29:54Z</time>
      </trkpt>
      <trkpt lat="47.41884" lon="-0.67096">
        <ele>71.4</ele>
        <time>2021-03-12T20:29:58Z</time>
      </trkpt>
      <trkpt lat="47.41916" lon="-0.67116">
        <ele>70</ele>
        <time>2021-03-12T20:30:04Z</time>
      </trkpt>
      <trkpt lat="47.41943" lon="-0.67121">
        <ele>69.4</ele>
        <time>2021-03-12T20:30:08Z</time>
      </trkpt>
      <trkpt lat="47.41949" lon="-0.67108">
        <ele>68.2</ele>
        <time>2021-03-12T20:30:10Z</time>
      </trkpt>
      <trkpt lat="47.41949" lon="-0.67064">
        <ele>66.2</ele>
        <time>2021-03-12T20:30:15Z</time>
      </trkpt>
      <trkpt lat="47.41964" lon="-0.66941">
        <ele>64.2</ele>
        <time>2021-03-12T20:30:28Z</time>
      </trkpt>
      <trkpt lat="47.42013" lon="-0.66781">
        <ele>61.6</ele>
        <time>2021-03-12T20:30:47Z</time>
      </trkpt>
      <trkpt lat="47.42051" lon="-0.66627">
        <ele>59</ele>
        <time>2021-03-12T20:31:05Z</time>
      </trkpt>
      <trkpt lat="47.42079" lon="-0.66463">
        <ele>57</ele>
        <time>2021-03-12T20:31:24Z</time>
      </trkpt>
      <trkpt lat="47.42086" lon="-0.66438">
        <ele>57</ele>
        <time>2021-03-12T20:31:27Z</time>
      </trkpt>
      <trkpt lat="47.42095" lon="-0.66428">
        <ele>57</ele>
        <time>2021-03-12T20:31:28Z</time>
      </trkpt>
      <trkpt lat="47.42108" lon="-0.66425">
        <ele>57</ele>
        <time>2021-03-12T20:31:31Z</time>
      </trkpt>
      <trkpt lat="47.42207" lon="-0.66415">
        <ele>57.4</ele>
        <time>2021-03-12T20:31:46Z</time>
      </trkpt>
      <trkpt lat="47.4233" lon="-0.66392">
        <ele>53</ele>
        <time>2021-03-12T20:32:06Z</time>
      </trkpt>
      <trkpt lat="47.42429" lon="-0.6637">
        <ele>54.6</ele>
        <time>2021-03-12T20:32:22Z</time>
      </trkpt>
      <trkpt lat="47.42541" lon="-0.66362">
        <ele>54.4</ele>
        <time>2021-03-12T20:32:40Z</time>
      </trkpt>
      <trkpt lat="47.42611" lon="-0.66352">
        <ele>54.6</ele>
        <time>2021-03-12T20:32:52Z</time>
      </trkpt>
      <trkpt lat="47.42653" lon="-0.66341">
        <ele>54.4</ele>
        <time>2021-03-12T20:32:58Z</time>
      </trkpt>
      <trkpt lat="47.42798" lon="-0.66369">
        <ele>53.8</ele>
        <time>2021-03-12T20:33:22Z</time>
      </trkpt>
      <trkpt lat="47.42824" lon="-0.66357">
        <ele>54.8</ele>
        <time>2021-03-12T20:33:26Z</time>
      </trkpt>
      <trkpt lat="47.43011" lon="-0.66217">
        <ele>49.6</ele>
        <time>2021-03-12T20:34:00Z</time>
      </trkpt>
      <trkpt lat="47.43024" lon="-0.66217">
        <ele>49</ele>
        <time>2021-03-12T20:34:02Z</time>
      </trkpt>
      <trkpt lat="47.43035" lon="-0.66225">
        <ele>48.6</ele>
        <time>2021-03-12T20:34:04Z</time>
      </trkpt>
      <trkpt lat="47.431" lon="-0.66301">
        <ele>45.6</ele>
        <time>2021-03-12T20:34:17Z</time>
      </trkpt>
      <trkpt lat="47.43106" lon="-0.66305">
        <ele>45.2</ele>
        <time>2021-03-12T20:34:18Z</time>
      </trkpt>
      <trkpt lat="47.43127" lon="-0.66311">
        <ele>43.6</ele>
        <time>2021-03-12T20:34:22Z</time>
      </trkpt>
      <trkpt lat="47.43129" lon="-0.66325">
        <ele>43</ele>
        <time>2021-03-12T20:34:23Z</time>
      </trkpt>
      <trkpt lat="47.43117" lon="-0.6639">
        <ele>44.4</ele>
        <time>2021-03-12T20:34:30Z</time>
      </trkpt>
      <trkpt lat="47.4312" lon="-0.66421">
        <ele>44.6</ele>
        <time>2021-03-12T20:34:34Z</time>
      </trkpt>
      <trkpt lat="47.43156" lon="-0.6654">
        <ele>47.2</ele>
        <time>2021-03-12T20:34:48Z</time>
      </trkpt>
      <trkpt lat="47.4317" lon="-0.66598">
        <ele>47.6</ele>
        <time>2021-03-12T20:34:55Z</time>
      </trkpt>
      <trkpt lat="47.43179" lon="-0.66624">
        <ele>47.8</ele>
        <time>2021-03-12T20:34:58Z</time>
      </trkpt>
      <trkpt lat="47.43214" lon="-0.66754">
        <ele>49.4</ele>
        <time>2021-03-12T20:35:13Z</time>
      </trkpt>
      <trkpt lat="47.43227" lon="-0.66773">
        <ele>48.6</ele>
        <time>2021-03-12T20:35:16Z</time>
      </trkpt>
      <trkpt lat="47.43235" lon="-0.6677">
        <ele>48</ele>
        <time>2021-03-12T20:35:17Z</time>
      </trkpt>
      <trkpt lat="47.43257" lon="-0.66753">
        <ele>47</ele>
        <time>2021-03-12T20:35:21Z</time>
      </trkpt>
      <trkpt lat="47.43314" lon="-0.6672">
        <ele>45.6</ele>
        <time>2021-03-12T20:35:31Z</time>
      </trkpt>
      <trkpt lat="47.43403" lon="-0.66638">
        <ele>43.4</ele>
        <time>2021-03-12T20:35:48Z</time>
      </trkpt>
      <trkpt lat="47.43412" lon="-0.66627">
        <ele>43.2</ele>
        <time>2021-03-12T20:35:50Z</time>
      </trkpt>
      <trkpt lat="47.43421" lon="-0.66624">
        <ele>43</ele>
        <time>2021-03-12T20:35:51Z</time>
      </trkpt>
      <trkpt lat="47.43426" lon="-0.66625">
        <ele>43</ele>
        <time>2021-03-12T20:35:52Z</time>
      </trkpt>
      <trkpt lat="47.43487" lon="-0.66675">
        <ele>42.6</ele>
        <time>2021-03-12T20:36:03Z</time>
      </trkpt>
      <trkpt lat="47.43521" lon="-0.66724">
        <ele>40.4</ele>
        <time>2021-03-12T20:36:11Z</time>
      </trkpt>
      <trkpt lat="47.43535" lon="-0.66752">
        <ele>38.6</ele>
        <time>2021-03-12T20:36:15Z</time>
      </trkpt>
      <trkpt lat="47.43555" lon="-0.66772">
        <ele>37.4</ele>
        <time>2021-03-12T20:36:18Z</time>
      </trkpt>
      <trkpt lat="47.43566" lon="-0.66791">
        <ele>36.2</ele>
        <time>2021-03-12T20:36:21Z</time>
      </trkpt>
      <trkpt lat="47.43576" lon="-0.66797">
        <ele>35.6</ele>
        <time>2021-03-12T20:36:23Z</time>
      </trkpt>
      <trkpt lat="47.43607" lon="-0.66783">
        <ele>35</ele>
        <time>2021-03-12T20:36:28Z</time>
      </trkpt>
      <trkpt lat="47.43618" lon="-0.66784">
        <ele>35.4</ele>
        <time>2021-03-12T20:36:30Z</time>
      </trkpt>
      <trkpt lat="47.43626" lon="-0.66791">
        <ele>35.6</ele>
        <time>2021-03-12T20:36:31Z</time>
      </trkpt>
      <trkpt lat="47.43677" lon="-0.66882">
        <ele>38.6</ele>
        <time>2021-03-12T20:36:44Z</time>
      </trkpt>
      <trkpt lat="47.43682" lon="-0.66895">
        <ele>39</ele>
        <time>2021-03-12T20:36:46Z</time>
      </trkpt>
      <trkpt lat="47.43706" lon="-0.67012">
        <ele>40.8</ele>
        <time>2021-03-12T20:36:59Z</time>
      </trkpt>
      <trkpt lat="47.43743" lon="-0.67117">
        <ele>40</ele>
        <time>2021-03-12T20:37:12Z</time>
      </trkpt>
      <trkpt lat="47.43785" lon="-0.67209">
        <ele>43.6</ele>
        <time>2021-03-12T20:37:24Z</time>
      </trkpt>
      <trkpt lat="47.43838" lon="-0.6736">
        <ele>49</ele>
        <time>2021-03-12T20:37:42Z</time>
      </trkpt>
      <trkpt lat="47.43904" lon="-0.67505">
        <ele>49.4</ele>
        <time>2021-03-12T20:38:01Z</time>
      </trkpt>
      <trkpt lat="47.43911" lon="-0.67509">
        <ele>49.2</ele>
        <time>2021-03-12T20:38:03Z</time>
      </trkpt>
      <trkpt lat="47.43934" lon="-0.67495">
        <ele>49</ele>
        <time>2021-03-12T20:38:07Z</time>
      </trkpt>
      <trkpt lat="47.44006" lon="-0.67466">
        <ele>46.2</ele>
        <time>2021-03-12T20:38:19Z</time>
      </trkpt>
      <trkpt lat="47.44036" lon="-0.67462">
        <ele>44.6</ele>
        <time>2021-03-12T20:38:23Z</time>
      </trkpt>
      <trkpt lat="47.44042" lon="-0.67459">
        <ele>44.2</ele>
        <time>2021-03-12T20:38:24Z</time>
      </trkpt>
      <trkpt lat="47.44311" lon="-0.67314">
        <ele>44</ele>
        <time>2021-03-12T20:39:10Z</time>
      </trkpt>
      <trkpt lat="47.44426" lon="-0.67249">
        <ele>41.4</ele>
        <time>2021-03-12T20:39:30Z</time>
      </trkpt>
      <trkpt lat="47.44439" lon="-0.67247">
        <ele>41.8</ele>
        <time>2021-03-12T20:39:32Z</time>
      </trkpt>
      <trkpt lat="47.44457" lon="-0.67251">
        <ele>42.8</ele>
        <time>2021-03-12T20:39:35Z</time>
      </trkpt>
      <trkpt lat="47.44524" lon="-0.67279">
        <ele>42.8</ele>
        <time>2021-03-12T20:39:46Z</time>
      </trkpt>
      <trkpt lat="47.44563" lon="-0.67278">
        <ele>40.2</ele>
        <time>2021-03-12T20:39:52Z</time>
      </trkpt>
      <trkpt lat="47.44635" lon="-0.67227">
        <ele>38</ele>
        <time>2021-03-12T20:40:05Z</time>
      </trkpt>
      <trkpt lat="47.4469" lon="-0.67212">
        <ele>39.4</ele>
        <time>2021-03-12T20:40:14Z</time>
      </trkpt>
      <trkpt lat="47.4474" lon="-0.67178">
        <ele>43.4</ele>
        <time>2021-03-12T20:40:23Z</time>
      </trkpt>
      <trkpt lat="47.44807" lon="-0.67101">
        <ele>42.4</ele>
        <time>2021-03-12T20:40:37Z</time>
      </trkpt>
      <trkpt lat="47.44906" lon="-0.66933">
        <ele>45</ele>
        <time>2021-03-12T20:41:01Z</time>
      </trkpt>
      <trkpt lat="47.44953" lon="-0.6685">
        <ele>50.4</ele>
        <time>2021-03-12T20:41:12Z</time>
      </trkpt>
      <trkpt lat="47.44978" lon="-0.66786">
        <ele>50.4</ele>
        <time>2021-03-12T20:41:20Z</time>
      </trkpt>
      <trkpt lat="47.44987" lon="-0.66755">
        <ele>51.2</ele>
        <time>2021-03-12T20:41:24Z</time>
      </trkpt>
      <trkpt lat="47.45001" lon="-0.66735">
        <ele>52.8</ele>
        <time>2021-03-12T20:41:27Z</time>
      </trkpt>
      <trkpt lat="47.45047" lon="-0.66684">
        <ele>54.8</ele>
        <time>2021-03-12T20:41:36Z</time>
      </trkpt>
      <trkpt lat="47.45134" lon="-0.66605">
        <ele>61.8</ele>
        <time>2021-03-12T20:41:53Z</time>
      </trkpt>
      <trkpt lat="47.4523" lon="-0.66505">
        <ele>65</ele>
        <time>2021-03-12T20:42:12Z</time>
      </trkpt>
      <trkpt lat="47.4533" lon="-0.66416">
        <ele>69.2</ele>
        <time>2021-03-12T20:42:30Z</time>
      </trkpt>
      <trkpt lat="47.45333" lon="-0.66416">
        <ele>69.2</ele>
        <time>2021-03-12T20:42:31Z</time>
      </trkpt>
      <trkpt lat="47.45453" lon="-0.66524">
        <ele>71</ele>
        <time>2021-03-12T20:42:53Z</time>
      </trkpt>
      <trkpt lat="47.45477" lon="-0.6653">
        <ele>72</ele>
        <time>2021-03-12T20:42:57Z</time>
      </trkpt>
      <trkpt lat="47.45494" lon="-0.66524">
        <ele>72.4</ele>
        <time>2021-03-12T20:43:00Z</time>
      </trkpt>
      <trkpt lat="47.45503" lon="-0.66526">
        <ele>72.2</ele>
        <time>2021-03-12T20:43:01Z</time>
      </trkpt>
      <trkpt lat="47.4551" lon="-0.66535">
        <ele>71.6</ele>
        <time>2021-03-12T20:43:03Z</time>
      </trkpt>
      <trkpt lat="47.45518" lon="-0.66571">
        <ele>69.4</ele>
        <time>2021-03-12T20:43:07Z</time>
      </trkpt>
      <trkpt lat="47.45536" lon="-0.66619">
        <ele>69.2</ele>
        <time>2021-03-12T20:43:13Z</time>
      </trkpt>
      <trkpt lat="47.45531" lon="-0.66633">
        <ele>69.6</ele>
        <time>2021-03-12T20:43:15Z</time>
      </trkpt>
      <trkpt lat="47.45508" lon="-0.66668">
        <ele>70</ele>
        <time>2021-03-12T20:43:20Z</time>
      </trkpt>
      <trkpt lat="47.45479" lon="-0.66696">
        <ele>69.2</ele>
        <time>2021-03-12T20:43:26Z</time>
      </trkpt>
      <trkpt lat="47.4546" lon="-0.66769">
        <ele>65.8</ele>
        <time>2021-03-12T20:43:34Z</time>
      </trkpt>
      <trkpt lat="47.45488" lon="-0.66804">
        <ele>66.8</ele>
        <time>2021-03-12T20:43:40Z</time>
      </trkpt>
      <trkpt lat="47.45514" lon="-0.66774">
        <ele>68.6</ele>
        <time>2021-03-12T20:43:45Z</time>
      </trkpt>
      <trkpt lat="47.45522" lon="-0.66777">
        <ele>68.8</ele>
        <time>2021-03-12T20:43:47Z</time>
      </trkpt>
      <trkpt lat="47.45539" lon="-0.66791">
        <ele>68.6</ele>
        <time>2021-03-12T20:43:50Z</time>
      </trkpt>
      <trkpt lat="47.45605" lon="-0.66819">
        <ele>69.2</ele>
        <time>2021-03-12T20:44:01Z</time>
      </trkpt>
      <trkpt lat="47.45619" lon="-0.66829">
        <ele>70.4</ele>
        <time>2021-03-12T20:44:03Z</time>
      </trkpt>
      <trkpt lat="47.45657" lon="-0.66825">
        <ele>72.2</ele>
        <time>2021-03-12T20:44:09Z</time>
      </trkpt>
      <trkpt lat="47.45662" lon="-0.66811">
        <ele>72</ele>
        <time>2021-03-12T20:44:11Z</time>
      </trkpt>
      <trkpt lat="47.45671" lon="-0.66797">
        <ele>71.8</ele>
        <time>2021-03-12T20:44:13Z</time>
      </trkpt>
      <trkpt lat="47.45686" lon="-0.66797">
        <ele>72.2</ele>
        <time>2021-03-12T20:44:16Z</time>
      </trkpt>
      <trkpt lat="47.457" lon="-0.66794">
        <ele>72.6</ele>
        <time>2021-03-12T20:44:18Z</time>
      </trkpt>
      <trkpt lat="47.45724" lon="-0.66816">
        <ele>73.8</ele>
        <time>2021-03-12T20:44:22Z</time>
      </trkpt>
      <trkpt lat="47.4574" lon="-0.66848">
        <ele>73.6</ele>
        <time>2021-03-12T20:44:27Z</time>
      </trkpt>
      <trkpt lat="47.45751" lon="-0.66916">
        <ele>75.8</ele>
        <time>2021-03-12T20:44:34Z</time>
      </trkpt>
      <trkpt lat="47.45795" lon="-0.66975">
        <ele>77.2</ele>
        <time>2021-03-12T20:44:44Z</time>
      </trkpt>
      <trkpt lat="47.45831" lon="-0.66979">
        <ele>75.2</ele>
        <time>2021-03-12T20:44:50Z</time>
      </trkpt>
      <trkpt lat="47.45846" lon="-0.66972">
        <ele>75</ele>
        <time>2021-03-12T20:44:52Z</time>
      </trkpt>
      <trkpt lat="47.45871" lon="-0.66972">
        <ele>75</ele>
        <time>2021-03-12T20:44:56Z</time>
      </trkpt>
      <trkpt lat="47.45877" lon="-0.66967">
        <ele>75</ele>
        <time>2021-03-12T20:44:57Z</time>
      </trkpt>
      <trkpt lat="47.45887" lon="-0.66949">
        <ele>75</ele>
        <time>2021-03-12T20:45:00Z</time>
      </trkpt>
      <trkpt lat="47.45901" lon="-0.66913">
        <ele>74.6</ele>
        <time>2021-03-12T20:45:04Z</time>
      </trkpt>
      <trkpt lat="47.45905" lon="-0.66924">
        <ele>75</ele>
        <time>2021-03-12T20:45:06Z</time>
      </trkpt>
      <trkpt lat="47.45903" lon="-0.66978">
        <ele>75</ele>
        <time>2021-03-12T20:45:12Z</time>
      </trkpt>
      <trkpt lat="47.45926" lon="-0.67013">
        <ele>75.2</ele>
        <time>2021-03-12T20:45:17Z</time>
      </trkpt>
      <trkpt lat="47.45932" lon="-0.67007">
        <ele>75</ele>
        <time>2021-03-12T20:45:18Z</time>
      </trkpt>
      <trkpt lat="47.45967" lon="-0.66948">
        <ele>74.8</ele>
        <time>2021-03-12T20:45:27Z</time>
      </trkpt>
      <trkpt lat="47.45978" lon="-0.6694">
        <ele>75</ele>
        <time>2021-03-12T20:45:29Z</time>
      </trkpt>
      <trkpt lat="47.46002" lon="-0.66915">
        <ele>74.8</ele>
        <time>2021-03-12T20:45:33Z</time>
      </trkpt>
      <trkpt lat="47.46007" lon="-0.66913">
        <ele>74.4</ele>
        <time>2021-03-12T20:45:34Z</time>
      </trkpt>
      <trkpt lat="47.46019" lon="-0.66913">
        <ele>74</ele>
        <time>2021-03-12T20:45:36Z</time>
      </trkpt>
      <trkpt lat="47.46031" lon="-0.66922">
        <ele>73.8</ele>
        <time>2021-03-12T20:45:38Z</time>
      </trkpt>
      <trkpt lat="47.46061" lon="-0.66966">
        <ele>73.2</ele>
        <time>2021-03-12T20:45:45Z</time>
      </trkpt>
      <trkpt lat="47.46078" lon="-0.6698">
        <ele>73</ele>
        <time>2021-03-12T20:45:48Z</time>
      </trkpt>
      <trkpt lat="47.4609" lon="-0.66983">
        <ele>73.2</ele>
        <time>2021-03-12T20:45:50Z</time>
      </trkpt>
      <trkpt lat="47.46108" lon="-0.66979">
        <ele>74</ele>
        <time>2021-03-12T20:45:53Z</time>
      </trkpt>
      <trkpt lat="47.46205" lon="-0.66917">
        <ele>72.6</ele>
        <time>2021-03-12T20:46:10Z</time>
      </trkpt>
      <trkpt lat="47.4621" lon="-0.66911">
        <ele>72.8</ele>
        <time>2021-03-12T20:46:11Z</time>
      </trkpt>
      <trkpt lat="47.46216" lon="-0.66894">
        <ele>72.8</ele>
        <time>2021-03-12T20:46:13Z</time>
      </trkpt>
      <trkpt lat="47.46251" lon="-0.6674">
        <ele>71</ele>
        <time>2021-03-12T20:46:31Z</time>
      </trkpt>
      <trkpt lat="47.4626" lon="-0.66729">
        <ele>70.2</ele>
        <time>2021-03-12T20:46:33Z</time>
      </trkpt>
      <trkpt lat="47.46288" lon="-0.6671">
        <ele>69</ele>
        <time>2021-03-12T20:46:37Z</time>
      </trkpt>
      <trkpt lat="47.46326" lon="-0.66649">
        <ele>64.4</ele>
        <time>2021-03-12T20:46:46Z</time>
      </trkpt>
      <trkpt lat="47.46503" lon="-0.66488">
        <ele>62.2</ele>
        <time>2021-03-12T20:47:20Z</time>
      </trkpt>
      <trkpt lat="47.46657" lon="-0.66402">
        <ele>62</ele>
        <time>2021-03-12T20:47:46Z</time>
      </trkpt>
      <trkpt lat="47.46664" lon="-0.66395">
        <ele>62</ele>
        <time>2021-03-12T20:47:47Z</time>
      </trkpt>
      <trkpt lat="47.4667" lon="-0.66373">
        <ele>61.6</ele>
        <time>2021-03-12T20:47:50Z</time>
      </trkpt>
      <trkpt lat="47.46667" lon="-0.66276">
        <ele>62</ele>
        <time>2021-03-12T20:48:01Z</time>
      </trkpt>
      <trkpt lat="47.4667" lon="-0.66256">
        <ele>61.6</ele>
        <time>2021-03-12T20:48:03Z</time>
      </trkpt>
      <trkpt lat="47.46739" lon="-0.66051">
        <ele>61</ele>
        <time>2021-03-12T20:48:28Z</time>
      </trkpt>
      <trkpt lat="47.4674" lon="-0.66042">
        <ele>61</ele>
        <time>2021-03-12T20:48:29Z</time>
      </trkpt>
      <trkpt lat="47.46736" lon="-0.66013">
        <ele>61.6</ele>
        <time>2021-03-12T20:48:32Z</time>
      </trkpt>
      <trkpt lat="47.46707" lon="-0.6592">
        <ele>61</ele>
        <time>2021-03-12T20:48:43Z</time>
      </trkpt>
      <trkpt lat="47.46701" lon="-0.65888">
        <ele>61</ele>
        <time>2021-03-12T20:48:47Z</time>
      </trkpt>
      <trkpt lat="47.46688" lon="-0.65864">
        <ele>60.8</ele>
        <time>2021-03-12T20:48:50Z</time>
      </trkpt>
      <trkpt lat="47.46688" lon="-0.65852">
        <ele>60.4</ele>
        <time>2021-03-12T20:48:51Z</time>
      </trkpt>
      <trkpt lat="47.46693" lon="-0.65842">
        <ele>60.2</ele>
        <time>2021-03-12T20:48:53Z</time>
      </trkpt>
      <trkpt lat="47.46727" lon="-0.65825">
        <ele>60.8</ele>
        <time>2021-03-12T20:48:58Z</time>
      </trkpt>
      <trkpt lat="47.46791" lon="-0.65785">
        <ele>60.4</ele>
        <time>2021-03-12T20:49:09Z</time>
      </trkpt>
      <trkpt lat="47.46813" lon="-0.65776">
        <ele>60</ele>
        <time>2021-03-12T20:49:13Z</time>
      </trkpt>
      <trkpt lat="47.4688" lon="-0.65754">
        <ele>58.6</ele>
        <time>2021-03-12T20:49:24Z</time>
      </trkpt>
      <trkpt lat="47.46933" lon="-0.65764">
        <ele>56.4</ele>
        <time>2021-03-12T20:49:33Z</time>
      </trkpt>
      <trkpt lat="47.46947" lon="-0.65759">
        <ele>55.8</ele>
        <time>2021-03-12T20:49:35Z</time>
      </trkpt>
      <trkpt lat="47.46991" lon="-0.65727">
        <ele>58.4</ele>
        <time>2021-03-12T20:49:43Z</time>
      </trkpt>
      <trkpt lat="47.46998" lon="-0.65733">
        <ele>58.4</ele>
        <time>2021-03-12T20:49:44Z</time>
      </trkpt>
      <trkpt lat="47.46993" lon="-0.65741">
        <ele>57.8</ele>
        <time>2021-03-12T20:49:45Z</time>
      </trkpt>
      <trkpt lat="47.46982" lon="-0.65734">
        <ele>57.4</ele>
        <time>2021-03-12T20:49:47Z</time>
      </trkpt>
      <trkpt lat="47.46985" lon="-0.65747">
        <ele>57</ele>
        <time>2021-03-12T20:49:49Z</time>
      </trkpt>
      <trkpt lat="47.47056" lon="-0.65843">
        <ele>54.8</ele>
        <time>2021-03-12T20:50:04Z</time>
      </trkpt>
      <trkpt lat="47.47109" lon="-0.6587">
        <ele>55.8</ele>
        <time>2021-03-12T20:50:13Z</time>
      </trkpt>
      <trkpt lat="47.47172" lon="-0.65909">
        <ele>53.4</ele>
        <time>2021-03-12T20:50:24Z</time>
      </trkpt>
      <trkpt lat="47.47182" lon="-0.65912">
        <ele>53</ele>
        <time>2021-03-12T20:50:26Z</time>
      </trkpt>
      <trkpt lat="47.4726" lon="-0.65907">
        <ele>54.6</ele>
        <time>2021-03-12T20:50:38Z</time>
      </trkpt>
      <trkpt lat="47.47334" lon="-0.65913">
        <ele>53.2</ele>
        <time>2021-03-12T20:50:50Z</time>
      </trkpt>
      <trkpt lat="47.47401" lon="-0.65896">
        <ele>52.4</ele>
        <time>2021-03-12T20:51:01Z</time>
      </trkpt>
      <trkpt lat="47.4741" lon="-0.65888">
        <ele>52.6</ele>
        <time>2021-03-12T20:51:03Z</time>
      </trkpt>
      <trkpt lat="47.47443" lon="-0.65841">
        <ele>53</ele>
        <time>2021-03-12T20:51:10Z</time>
      </trkpt>
      <trkpt lat="47.47473" lon="-0.65811">
        <ele>54</ele>
        <time>2021-03-12T20:51:16Z</time>
      </trkpt>
      <trkpt lat="47.47485" lon="-0.65807">
        <ele>54.6</ele>
        <time>2021-03-12T20:51:18Z</time>
      </trkpt>
      <trkpt lat="47.47489" lon="-0.65797">
        <ele>55</ele>
        <time>2021-03-12T20:51:19Z</time>
      </trkpt>
      <trkpt lat="47.47496" lon="-0.6574">
        <ele>56.8</ele>
        <time>2021-03-12T20:51:25Z</time>
      </trkpt>
      <trkpt lat="47.47513" lon="-0.65673">
        <ele>53.6</ele>
        <time>2021-03-12T20:51:33Z</time>
      </trkpt>
      <trkpt lat="47.47527" lon="-0.65635">
        <ele>49.8</ele>
        <time>2021-03-12T20:51:38Z</time>
      </trkpt>
      <trkpt lat="47.47548" lon="-0.65543">
        <ele>47.2</ele>
        <time>2021-03-12T20:51:48Z</time>
      </trkpt>
      <trkpt lat="47.47576" lon="-0.65444">
        <ele>46</ele>
        <time>2021-03-12T20:52:00Z</time>
      </trkpt>
      <trkpt lat="47.4759" lon="-0.65415">
        <ele>45.8</ele>
        <time>2021-03-12T20:52:04Z</time>
      </trkpt>
      <trkpt lat="47.47605" lon="-0.65367">
        <ele>46.2</ele>
        <time>2021-03-12T20:52:10Z</time>
      </trkpt>
      <trkpt lat="47.47716" lon="-0.65246">
        <ele>45</ele>
        <time>2021-03-12T20:52:32Z</time>
      </trkpt>
      <trkpt lat="47.47728" lon="-0.65225">
        <ele>45.8</ele>
        <time>2021-03-12T20:52:35Z</time>
      </trkpt>
      <trkpt lat="47.47777" lon="-0.65121">
        <ele>44</ele>
        <time>2021-03-12T20:52:48Z</time>
      </trkpt>
      <trkpt lat="47.47785" lon="-0.6511">
        <ele>44.2</ele>
        <time>2021-03-12T20:52:50Z</time>
      </trkpt>
      <trkpt lat="47.47804" lon="-0.651">
        <ele>45</ele>
        <time>2021-03-12T20:52:53Z</time>
      </trkpt>
      <trkpt lat="47.4782" lon="-0.65079">
        <ele>44.4</ele>
        <time>2021-03-12T20:52:57Z</time>
      </trkpt>
      <trkpt lat="47.47878" lon="-0.6503">
        <ele>44.6</ele>
        <time>2021-03-12T20:53:08Z</time>
      </trkpt>
      <trkpt lat="47.47942" lon="-0.6497">
        <ele>42</ele>
        <time>2021-03-12T20:53:20Z</time>
      </trkpt>
      <trkpt lat="47.4796" lon="-0.64948">
        <ele>42.6</ele>
        <time>2021-03-12T20:53:23Z</time>
      </trkpt>
      <trkpt lat="47.48004" lon="-0.64881">
        <ele>41.6</ele>
        <time>2021-03-12T20:53:34Z</time>
      </trkpt>
      <trkpt lat="47.48013" lon="-0.64872">
        <ele>41.2</ele>
        <time>2021-03-12T20:53:35Z</time>
      </trkpt>
      <trkpt lat="47.48026" lon="-0.64865">
        <ele>41</ele>
        <time>2021-03-12T20:53:38Z</time>
      </trkpt>
      <trkpt lat="47.48032" lon="-0.6485">
        <ele>41</ele>
        <time>2021-03-12T20:53:39Z</time>
      </trkpt>
      <trkpt lat="47.48032" lon="-0.64838">
        <ele>41</ele>
        <time>2021-03-12T20:53:41Z</time>
      </trkpt>
      <trkpt lat="47.48026" lon="-0.64816">
        <ele>41</ele>
        <time>2021-03-12T20:53:43Z</time>
      </trkpt>
      <trkpt lat="47.48011" lon="-0.64779">
        <ele>42.2</ele>
        <time>2021-03-12T20:53:48Z</time>
      </trkpt>
      <trkpt lat="47.47983" lon="-0.64728">
        <ele>44.2</ele>
        <time>2021-03-12T20:53:55Z</time>
      </trkpt>
      <trkpt lat="47.4797" lon="-0.64678">
        <ele>46.8</ele>
        <time>2021-03-12T20:54:01Z</time>
      </trkpt>
      <trkpt lat="47.4796" lon="-0.64621">
        <ele>48.4</ele>
        <time>2021-03-12T20:54:07Z</time>
      </trkpt>
      <trkpt lat="47.47941" lon="-0.64559">
        <ele>49.2</ele>
        <time>2021-03-12T20:54:15Z</time>
      </trkpt>
      <trkpt lat="47.47922" lon="-0.64512">
        <ele>51.6</ele>
        <time>2021-03-12T20:54:21Z</time>
      </trkpt>
      <trkpt lat="47.47905" lon="-0.64461">
        <ele>55.4</ele>
        <time>2021-03-12T20:54:27Z</time>
      </trkpt>
      <trkpt lat="47.47884" lon="-0.64415">
        <ele>57.2</ele>
        <time>2021-03-12T20:54:33Z</time>
      </trkpt>
      <trkpt lat="47.47851" lon="-0.64352">
        <ele>59.8</ele>
        <time>2021-03-12T20:54:41Z</time>
      </trkpt>
      <trkpt lat="47.47836" lon="-0.64292">
        <ele>59.8</ele>
        <time>2021-03-12T20:54:48Z</time>
      </trkpt>
      <trkpt lat="47.47827" lon="-0.64241">
        <ele>60.6</ele>
        <time>2021-03-12T20:54:54Z</time>
      </trkpt>
      <trkpt lat="47.47861" lon="-0.6418">
        <ele>60</ele>
        <time>2021-03-12T20:55:03Z</time>
      </trkpt>
      <trkpt lat="47.47929" lon="-0.64127">
        <ele>56</ele>
        <time>2021-03-12T20:55:15Z</time>
      </trkpt>
      <trkpt lat="47.47934" lon="-0.6412">
        <ele>56</ele>
        <time>2021-03-12T20:55:16Z</time>
      </trkpt>
      <trkpt lat="47.47957" lon="-0.64077">
        <ele>55</ele>
        <time>2021-03-12T20:55:22Z</time>
      </trkpt>
      <trkpt lat="47.47953" lon="-0.64069">
        <ele>55.4</ele>
        <time>2021-03-12T20:55:23Z</time>
      </trkpt>
      <trkpt lat="47.4796" lon="-0.64051">
        <ele>54.8</ele>
        <time>2021-03-12T20:55:25Z</time>
      </trkpt>
      <trkpt lat="47.47969" lon="-0.64001">
        <ele>54.2</ele>
        <time>2021-03-12T20:55:31Z</time>
      </trkpt>
      <trkpt lat="47.4799" lon="-0.63944">
        <ele>53.4</ele>
        <time>2021-03-12T20:55:38Z</time>
      </trkpt>
      <trkpt lat="47.48014" lon="-0.63894">
        <ele>53.4</ele>
        <time>2021-03-12T20:55:45Z</time>
      </trkpt>
      <trkpt lat="47.48053" lon="-0.63852">
        <ele>50.6</ele>
        <time>2021-03-12T20:55:52Z</time>
      </trkpt>
      <trkpt lat="47.48124" lon="-0.63799">
        <ele>52.6</ele>
        <time>2021-03-12T20:56:05Z</time>
      </trkpt>
      <trkpt lat="47.48135" lon="-0.63787">
        <ele>53</ele>
        <time>2021-03-12T20:56:07Z</time>
      </trkpt>
      <trkpt lat="47.48191" lon="-0.63762">
        <ele>50.6</ele>
        <time>2021-03-12T20:56:17Z</time>
      </trkpt>
      <trkpt lat="47.48257" lon="-0.63775">
        <ele>45</ele>
        <time>2021-03-12T20:56:27Z</time>
      </trkpt>
      <trkpt lat="47.483" lon="-0.63765">
        <ele>42</ele>
        <time>2021-03-12T20:56:34Z</time>
      </trkpt>
      <trkpt lat="47.48335" lon="-0.63762">
        <ele>42.6</ele>
        <time>2021-03-12T20:56:40Z</time>
      </trkpt>
      <trkpt lat="47.48349" lon="-0.63755">
        <ele>42.4</ele>
        <time>2021-03-12T20:56:42Z</time>
      </trkpt>
      <trkpt lat="47.48353" lon="-0.63749">
        <ele>42.4</ele>
        <time>2021-03-12T20:56:43Z</time>
      </trkpt>
      <trkpt lat="47.4835" lon="-0.6368">
        <ele>44.6</ele>
        <time>2021-03-12T20:56:51Z</time>
      </trkpt>
      <trkpt lat="47.48342" lon="-0.63594">
        <ele>46.4</ele>
        <time>2021-03-12T20:57:00Z</time>
      </trkpt>
      <trkpt lat="47.48338" lon="-0.63511">
        <ele>46.2</ele>
        <time>2021-03-12T20:57:09Z</time>
      </trkpt>
      <trkpt lat="47.48351" lon="-0.63509">
        <ele>46.6</ele>
        <time>2021-03-12T20:57:11Z</time>
      </trkpt>
      <trkpt lat="47.4858" lon="-0.63388">
        <ele>41.8</ele>
        <time>2021-03-12T20:57:50Z</time>
      </trkpt>
      <trkpt lat="47.48594" lon="-0.63375">
        <ele>41.2</ele>
        <time>2021-03-12T20:57:53Z</time>
      </trkpt>
      <trkpt lat="47.48604" lon="-0.63355">
        <ele>40.2</ele>
        <time>2021-03-12T20:57:56Z</time>
      </trkpt>
      <trkpt lat="47.48609" lon="-0.63332">
        <ele>39</ele>
        <time>2021-03-12T20:57:58Z</time>
      </trkpt>
      <trkpt lat="47.48607" lon="-0.63188">
        <ele>34.2</ele>
        <time>2021-03-12T20:58:14Z</time>
      </trkpt>
      <trkpt lat="47.48608" lon="-0.63179">
        <ele>34.2</ele>
        <time>2021-03-12T20:58:15Z</time>
      </trkpt>
      <trkpt lat="47.48612" lon="-0.63173">
        <ele>34</ele>
        <time>2021-03-12T20:58:16Z</time>
      </trkpt>
      <trkpt lat="47.48624" lon="-0.63169">
        <ele>33.6</ele>
        <time>2021-03-12T20:58:18Z</time>
      </trkpt>
      <trkpt lat="47.48641" lon="-0.63183">
        <ele>33</ele>
        <time>2021-03-12T20:58:21Z</time>
      </trkpt>
      <trkpt lat="47.48729" lon="-0.63305">
        <ele>36.4</ele>
        <time>2021-03-12T20:58:40Z</time>
      </trkpt>
      <trkpt lat="47.48759" lon="-0.63343">
        <ele>34.6</ele>
        <time>2021-03-12T20:58:46Z</time>
      </trkpt>
      <trkpt lat="47.48786" lon="-0.6336">
        <ele>33.6</ele>
        <time>2021-03-12T20:58:51Z</time>
      </trkpt>
      <trkpt lat="47.488" lon="-0.63363">
        <ele>33.2</ele>
        <time>2021-03-12T20:58:53Z</time>
      </trkpt>
      <trkpt lat="47.48828" lon="-0.63359">
        <ele>33.6</ele>
        <time>2021-03-12T20:58:58Z</time>
      </trkpt>
      <trkpt lat="47.48841" lon="-0.63349">
        <ele>34</ele>
        <time>2021-03-12T20:59:00Z</time>
      </trkpt>
      <trkpt lat="47.48873" lon="-0.6331">
        <ele>35</ele>
        <time>2021-03-12T20:59:07Z</time>
      </trkpt>
      <trkpt lat="47.48924" lon="-0.63271">
        <ele>37.2</ele>
        <time>2021-03-12T20:59:16Z</time>
      </trkpt>
      <trkpt lat="47.48996" lon="-0.63191">
        <ele>37</ele>
        <time>2021-03-12T20:59:31Z</time>
      </trkpt>
      <trkpt lat="47.49002" lon="-0.63187">
        <ele>37</ele>
        <time>2021-03-12T20:59:32Z</time>
      </trkpt>
      <trkpt lat="47.49008" lon="-0.63185">
        <ele>37</ele>
        <time>2021-03-12T20:59:33Z</time>
      </trkpt>
      <trkpt lat="47.49083" lon="-0.63187">
        <ele>38</ele>
        <time>2021-03-12T20:59:45Z</time>
      </trkpt>
      <trkpt lat="47.49127" lon="-0.63197">
        <ele>39.2</ele>
        <time>2021-03-12T20:59:52Z</time>
      </trkpt>
      <trkpt lat="47.49123" lon="-0.63186">
        <ele>38.4</ele>
        <time>2021-03-12T20:59:53Z</time>
      </trkpt>
      <trkpt lat="47.49103" lon="-0.63154">
        <ele>38.2</ele>
        <time>2021-03-12T20:59:58Z</time>
      </trkpt>
      <trkpt lat="47.49097" lon="-0.63087">
        <ele>36.6</ele>
        <time>2021-03-12T21:00:06Z</time>
      </trkpt>
      <trkpt lat="47.49112" lon="-0.63036">
        <ele>37</ele>
        <time>2021-03-12T21:00:12Z</time>
      </trkpt>
      <trkpt lat="47.49122" lon="-0.6298">
        <ele>36.2</ele>
        <time>2021-03-12T21:00:18Z</time>
      </trkpt>
      <trkpt lat="47.49119" lon="-0.62957">
        <ele>35.4</ele>
        <time>2021-03-12T21:00:20Z</time>
      </trkpt>
      <trkpt lat="47.4912" lon="-0.62943">
        <ele>35</ele>
        <time>2021-03-12T21:00:22Z</time>
      </trkpt>
      <trkpt lat="47.49155" lon="-0.62836">
        <ele>35</ele>
        <time>2021-03-12T21:00:35Z</time>
      </trkpt>
      <trkpt lat="47.49154" lon="-0.62747">
        <ele>33.8</ele>
        <time>2021-03-12T21:00:44Z</time>
      </trkpt>
      <trkpt lat="47.49146" lon="-0.62675">
        <ele>35</ele>
        <time>2021-03-12T21:00:52Z</time>
      </trkpt>
      <trkpt lat="47.49135" lon="-0.62622">
        <ele>37.4</ele>
        <time>2021-03-12T21:00:58Z</time>
      </trkpt>
      <trkpt lat="47.49132" lon="-0.62555">
        <ele>37.8</ele>
        <time>2021-03-12T21:01:06Z</time>
      </trkpt>
      <trkpt lat="47.49146" lon="-0.62493">
        <ele>36</ele>
        <time>2021-03-12T21:01:13Z</time>
      </trkpt>
      <trkpt lat="47.49143" lon="-0.62468">
        <ele>35.2</ele>
        <time>2021-03-12T21:01:16Z</time>
      </trkpt>
      <trkpt lat="47.49148" lon="-0.62382">
        <ele>30.6</ele>
        <time>2021-03-12T21:01:25Z</time>
      </trkpt>
      <trkpt lat="47.49165" lon="-0.62345">
        <ele>30</ele>
        <time>2021-03-12T21:01:30Z</time>
      </trkpt>
      <trkpt lat="47.49167" lon="-0.62311">
        <ele>30</ele>
        <time>2021-03-12T21:01:33Z</time>
      </trkpt>
      <trkpt lat="47.49172" lon="-0.62294">
        <ele>30.2</ele>
        <time>2021-03-12T21:01:35Z</time>
      </trkpt>
      <trkpt lat="47.4918" lon="-0.62279">
        <ele>30.4</ele>
        <time>2021-03-12T21:01:38Z</time>
      </trkpt>
      <trkpt lat="47.49184" lon="-0.62261">
        <ele>30.6</ele>
        <time>2021-03-12T21:01:40Z</time>
      </trkpt>
      <trkpt lat="47.49196" lon="-0.62172">
        <ele>31.2</ele>
        <time>2021-03-12T21:01:49Z</time>
      </trkpt>
      <trkpt lat="47.4919" lon="-0.62159">
        <ele>30.8</ele>
        <time>2021-03-12T21:01:51Z</time>
      </trkpt>
      <trkpt lat="47.49173" lon="-0.62154">
        <ele>29.8</ele>
        <time>2021-03-12T21:01:54Z</time>
      </trkpt>
      <trkpt lat="47.48929" lon="-0.62164">
        <ele>33.6</ele>
        <time>2021-03-12T21:02:33Z</time>
      </trkpt>
      <trkpt lat="47.4892" lon="-0.62159">
        <ele>33.6</ele>
        <time>2021-03-12T21:02:35Z</time>
      </trkpt>
      <trkpt lat="47.48914" lon="-0.62149">
        <ele>33.2</ele>
        <time>2021-03-12T21:02:36Z</time>
      </trkpt>
      <trkpt lat="47.48897" lon="-0.62046">
        <ele>31.6</ele>
        <time>2021-03-12T21:02:47Z</time>
      </trkpt>
      <trkpt lat="47.48897" lon="-0.61992">
        <ele>32.4</ele>
        <time>2021-03-12T21:02:53Z</time>
      </trkpt>
      <trkpt lat="47.48908" lon="-0.61925">
        <ele>33.6</ele>
        <time>2021-03-12T21:03:01Z</time>
      </trkpt>
      <trkpt lat="47.48904" lon="-0.61887">
        <ele>35.4</ele>
        <time>2021-03-12T21:03:05Z</time>
      </trkpt>
      <trkpt lat="47.48877" lon="-0.61808">
        <ele>37</ele>
        <time>2021-03-12T21:03:15Z</time>
      </trkpt>
      <trkpt lat="47.4885" lon="-0.61717">
        <ele>38.4</ele>
        <time>2021-03-12T21:03:25Z</time>
      </trkpt>
      <trkpt lat="47.48837" lon="-0.61699">
        <ele>38.8</ele>
        <time>2021-03-12T21:03:28Z</time>
      </trkpt>
      <trkpt lat="47.4876" lon="-0.6162">
        <ele>38.2</ele>
        <time>2021-03-12T21:03:43Z</time>
      </trkpt>
      <trkpt lat="47.48746" lon="-0.61587">
        <ele>41</ele>
        <time>2021-03-12T21:03:47Z</time>
      </trkpt>
      <trkpt lat="47.48746" lon="-0.6158">
        <ele>41.6</ele>
        <time>2021-03-12T21:03:48Z</time>
      </trkpt>
      <trkpt lat="47.48769" lon="-0.61552">
        <ele>42</ele>
        <time>2021-03-12T21:03:53Z</time>
      </trkpt>
      <trkpt lat="47.48794" lon="-0.61528">
        <ele>41.4</ele>
        <time>2021-03-12T21:03:58Z</time>
      </trkpt>
      <trkpt lat="47.48776" lon="-0.61442">
        <ele>46.8</ele>
        <time>2021-03-12T21:04:08Z</time>
      </trkpt>
      <trkpt lat="47.48748" lon="-0.61336">
        <ele>47</ele>
        <time>2021-03-12T21:04:20Z</time>
      </trkpt>
      <trkpt lat="47.48743" lon="-0.6127">
        <ele>45.8</ele>
        <time>2021-03-12T21:04:27Z</time>
      </trkpt>
      <trkpt lat="47.48732" lon="-0.61235">
        <ele>44.4</ele>
        <time>2021-03-12T21:04:31Z</time>
      </trkpt>
      <trkpt lat="47.48709" lon="-0.61184">
        <ele>44.6</ele>
        <time>2021-03-12T21:04:38Z</time>
      </trkpt>
      <trkpt lat="47.48684" lon="-0.61151">
        <ele>44.6</ele>
        <time>2021-03-12T21:04:43Z</time>
      </trkpt>
      <trkpt lat="47.48637" lon="-0.61121">
        <ele>42</ele>
        <time>2021-03-12T21:04:51Z</time>
      </trkpt>
      <trkpt lat="47.48623" lon="-0.61098">
        <ele>42.6</ele>
        <time>2021-03-12T21:04:55Z</time>
      </trkpt>
      <trkpt lat="47.48628" lon="-0.61105">
        <ele>42.4</ele>
        <time>2021-03-12T21:04:56Z</time>
      </trkpt>
      <trkpt lat="47.48639" lon="-0.61096">
        <ele>42.6</ele>
        <time>2021-03-12T21:04:58Z</time>
      </trkpt>
      <trkpt lat="47.48639" lon="-0.61041">
        <ele>44</ele>
        <time>2021-03-12T21:05:04Z</time>
      </trkpt>
      <trkpt lat="47.48641" lon="-0.61023">
        <ele>43.8</ele>
        <time>2021-03-12T21:05:06Z</time>
      </trkpt>
      <trkpt lat="47.48669" lon="-0.60956">
        <ele>43.2</ele>
        <time>2021-03-12T21:05:14Z</time>
      </trkpt>
      <trkpt lat="47.48695" lon="-0.60914">
        <ele>42</ele>
        <time>2021-03-12T21:05:21Z</time>
      </trkpt>
      <trkpt lat="47.48723" lon="-0.60898">
        <ele>38.8</ele>
        <time>2021-03-12T21:05:25Z</time>
      </trkpt>
      <trkpt lat="47.48726" lon="-0.60842">
        <ele>36.6</ele>
        <time>2021-03-12T21:05:32Z</time>
      </trkpt>
      <trkpt lat="47.48731" lon="-0.60813">
        <ele>34</ele>
        <time>2021-03-12T21:05:35Z</time>
      </trkpt>
      <trkpt lat="47.48722" lon="-0.60774">
        <ele>32.2</ele>
        <time>2021-03-12T21:05:39Z</time>
      </trkpt>
      <trkpt lat="47.48702" lon="-0.60719">
        <ele>30</ele>
        <time>2021-03-12T21:05:46Z</time>
      </trkpt>
      <trkpt lat="47.48631" lon="-0.60553">
        <ele>33.4</ele>
        <time>2021-03-12T21:06:07Z</time>
      </trkpt>
      <trkpt lat="47.48616" lon="-0.605">
        <ele>34</ele>
        <time>2021-03-12T21:06:14Z</time>
      </trkpt>
      <trkpt lat="47.48605" lon="-0.60419">
        <ele>33.2</ele>
        <time>2021-03-12T21:06:23Z</time>
      </trkpt>
      <trkpt lat="47.48612" lon="-0.60388">
        <ele>31.8</ele>
        <time>2021-03-12T21:06:26Z</time>
      </trkpt>
      <trkpt lat="47.48614" lon="-0.6036">
        <ele>31.6</ele>
        <time>2021-03-12T21:06:29Z</time>
      </trkpt>
      <trkpt lat="47.48613" lon="-0.60325">
        <ele>32</ele>
        <time>2021-03-12T21:06:33Z</time>
      </trkpt>
      <trkpt lat="47.48618" lon="-0.6031">
        <ele>31.8</ele>
        <time>2021-03-12T21:06:35Z</time>
      </trkpt>
      <trkpt lat="47.48617" lon="-0.60268">
        <ele>33</ele>
        <time>2021-03-12T21:06:39Z</time>
      </trkpt>
      <trkpt lat="47.48611" lon="-0.60242">
        <ele>35</ele>
        <time>2021-03-12T21:06:42Z</time>
      </trkpt>
      <trkpt lat="47.48614" lon="-0.60164">
        <ele>31.6</ele>
        <time>2021-03-12T21:06:51Z</time>
      </trkpt>
      <trkpt lat="47.48613" lon="-0.60114">
        <ele>30</ele>
        <time>2021-03-12T21:06:56Z</time>
      </trkpt>
      <trkpt lat="47.48599" lon="-0.60066">
        <ele>30.2</ele>
        <time>2021-03-12T21:07:02Z</time>
      </trkpt>
      <trkpt lat="47.4858" lon="-0.60052">
        <ele>30.2</ele>
        <time>2021-03-12T21:07:05Z</time>
      </trkpt>
      <trkpt lat="47.48566" lon="-0.60055">
        <ele>30.6</ele>
        <time>2021-03-12T21:07:08Z</time>
      </trkpt>
      <trkpt lat="47.48527" lon="-0.60101">
        <ele>34</ele>
        <time>2021-03-12T21:07:16Z</time>
      </trkpt>
      <trkpt lat="47.48496" lon="-0.60114">
        <ele>35.2</ele>
        <time>2021-03-12T21:07:21Z</time>
      </trkpt>
      <trkpt lat="47.4837" lon="-0.60105">
        <ele>35.8</ele>
        <time>2021-03-12T21:07:41Z</time>
      </trkpt>
      <trkpt lat="47.48329" lon="-0.60022">
        <ele>31.4</ele>
        <time>2021-03-12T21:07:52Z</time>
      </trkpt>
      <trkpt lat="47.48321" lon="-0.6">
        <ele>32</ele>
        <time>2021-03-12T21:07:55Z</time>
      </trkpt>
      <trkpt lat="47.48315" lon="-0.59966">
        <ele>32.2</ele>
        <time>2021-03-12T21:07:59Z</time>
      </trkpt>
      <trkpt lat="47.48307" lon="-0.5987">
        <ele>29</ele>
        <time>2021-03-12T21:08:09Z</time>
      </trkpt>
      <trkpt lat="47.48278" lon="-0.59673">
        <ele>33.2</ele>
        <time>2021-03-12T21:08:31Z</time>
      </trkpt>
      <trkpt lat="47.4826" lon="-0.59589">
        <ele>30.6</ele>
        <time>2021-03-12T21:08:40Z</time>
      </trkpt>
      <trkpt lat="47.48255" lon="-0.59522">
        <ele>32.4</ele>
        <time>2021-03-12T21:08:48Z</time>
      </trkpt>
      <trkpt lat="47.48245" lon="-0.59475">
        <ele>33.8</ele>
        <time>2021-03-12T21:08:53Z</time>
      </trkpt>
      <trkpt lat="47.48237" lon="-0.59392">
        <ele>34.4</ele>
        <time>2021-03-12T21:09:02Z</time>
      </trkpt>
      <trkpt lat="47.48226" lon="-0.59357">
        <ele>36.2</ele>
        <time>2021-03-12T21:09:06Z</time>
      </trkpt>
      <trkpt lat="47.48222" lon="-0.5933">
        <ele>35.6</ele>
        <time>2021-03-12T21:09:09Z</time>
      </trkpt>
      <trkpt lat="47.4822" lon="-0.59309">
        <ele>34.4</ele>
        <time>2021-03-12T21:09:12Z</time>
      </trkpt>
      <trkpt lat="47.48224" lon="-0.59275">
        <ele>32.8</ele>
        <time>2021-03-12T21:09:15Z</time>
      </trkpt>
      <trkpt lat="47.48226" lon="-0.59152">
        <ele>31.8</ele>
        <time>2021-03-12T21:09:29Z</time>
      </trkpt>
      <trkpt lat="47.4823" lon="-0.59106">
        <ele>32.4</ele>
        <time>2021-03-12T21:09:34Z</time>
      </trkpt>
      <trkpt lat="47.48215" lon="-0.59007">
        <ele>33.2</ele>
        <time>2021-03-12T21:09:45Z</time>
      </trkpt>
      <trkpt lat="47.48199" lon="-0.58938">
        <ele>34</ele>
        <time>2021-03-12T21:09:53Z</time>
      </trkpt>
      <trkpt lat="47.48184" lon="-0.58834">
        <ele>34.6</ele>
        <time>2021-03-12T21:10:04Z</time>
      </trkpt>
      <trkpt lat="47.48164" lon="-0.58724">
        <ele>32.6</ele>
        <time>2021-03-12T21:10:17Z</time>
      </trkpt>
      <trkpt lat="47.48154" lon="-0.58698">
        <ele>37</ele>
        <time>2021-03-12T21:10:20Z</time>
      </trkpt>
      <trkpt lat="47.48144" lon="-0.5868">
        <ele>39.2</ele>
        <time>2021-03-12T21:10:22Z</time>
      </trkpt>
      <trkpt lat="47.48073" lon="-0.58591">
        <ele>30.2</ele>
        <time>2021-03-12T21:10:37Z</time>
      </trkpt>
      <trkpt lat="47.48042" lon="-0.58579">
        <ele>30.2</ele>
        <time>2021-03-12T21:10:42Z</time>
      </trkpt>
      <trkpt lat="47.48015" lon="-0.58545">
        <ele>30.2</ele>
        <time>2021-03-12T21:10:48Z</time>
      </trkpt>
      <trkpt lat="47.47989" lon="-0.58471">
        <ele>28.8</ele>
        <time>2021-03-12T21:10:57Z</time>
      </trkpt>
      <trkpt lat="47.47972" lon="-0.58393">
        <ele>27</ele>
        <time>2021-03-12T21:11:06Z</time>
      </trkpt>
      <trkpt lat="47.47953" lon="-0.58363">
        <ele>27.4</ele>
        <time>2021-03-12T21:11:11Z</time>
      </trkpt>
      <trkpt lat="47.47944" lon="-0.58357">
        <ele>27.8</ele>
        <time>2021-03-12T21:11:12Z</time>
      </trkpt>
      <trkpt lat="47.47931" lon="-0.58331">
        <ele>29.2</ele>
        <time>2021-03-12T21:11:16Z</time>
      </trkpt>
      <trkpt lat="47.47923" lon="-0.583">
        <ele>29.2</ele>
        <time>2021-03-12T21:11:19Z</time>
      </trkpt>
      <trkpt lat="47.47919" lon="-0.58269">
        <ele>28.8</ele>
        <time>2021-03-12T21:11:23Z</time>
      </trkpt>
      <trkpt lat="47.47912" lon="-0.58244">
        <ele>29.2</ele>
        <time>2021-03-12T21:11:26Z</time>
      </trkpt>
      <trkpt lat="47.47882" lon="-0.58218">
        <ele>29.6</ele>
        <time>2021-03-12T21:11:31Z</time>
      </trkpt>
      <trkpt lat="47.47868" lon="-0.58182">
        <ele>28.4</ele>
        <time>2021-03-12T21:11:36Z</time>
      </trkpt>
      <trkpt lat="47.47854" lon="-0.58114">
        <ele>28.2</ele>
        <time>2021-03-12T21:11:43Z</time>
      </trkpt>
      <trkpt lat="47.47844" lon="-0.58082">
        <ele>28.4</ele>
        <time>2021-03-12T21:11:47Z</time>
      </trkpt>
      <trkpt lat="47.4783" lon="-0.58057">
        <ele>27</ele>
        <time>2021-03-12T21:11:51Z</time>
      </trkpt>
      <trkpt lat="47.47813" lon="-0.58071">
        <ele>28</ele>
        <time>2021-03-12T21:11:54Z</time>
      </trkpt>
      <trkpt lat="47.478" lon="-0.581">
        <ele>29.6</ele>
        <time>2021-03-12T21:11:58Z</time>
      </trkpt>
      <trkpt lat="47.47728" lon="-0.58207">
        <ele>32</ele>
        <time>2021-03-12T21:12:14Z</time>
      </trkpt>
      <trkpt lat="47.47719" lon="-0.58228">
        <ele>34</ele>
        <time>2021-03-12T21:12:17Z</time>
      </trkpt>
      <trkpt lat="47.4769" lon="-0.5825">
        <ele>33.8</ele>
        <time>2021-03-12T21:12:22Z</time>
      </trkpt>
      <trkpt lat="47.47682" lon="-0.58252">
        <ele>33.6</ele>
        <time>2021-03-12T21:12:23Z</time>
      </trkpt>
      <trkpt lat="47.47643" lon="-0.58275">
        <ele>32.2</ele>
        <time>2021-03-12T21:12:30Z</time>
      </trkpt>
      <trkpt lat="47.47628" lon="-0.5829">
        <ele>30.8</ele>
        <time>2021-03-12T21:12:33Z</time>
      </trkpt>
      <trkpt lat="47.47576" lon="-0.58274">
        <ele>26.8</ele>
        <time>2021-03-12T21:12:41Z</time>
      </trkpt>
      <trkpt lat="47.47555" lon="-0.58256">
        <ele>24.4</ele>
        <time>2021-03-12T21:12:45Z</time>
      </trkpt>
      <trkpt lat="47.47543" lon="-0.5824">
        <ele>24</ele>
        <time>2021-03-12T21:12:48Z</time>
      </trkpt>
      <trkpt lat="47.47538" lon="-0.58213">
        <ele>22.2</ele>
        <time>2021-03-12T21:12:51Z</time>
      </trkpt>
      <trkpt lat="47.47537" lon="-0.58185">
        <ele>24.8</ele>
        <time>2021-03-12T21:12:54Z</time>
      </trkpt>
      <trkpt lat="47.47525" lon="-0.58158">
        <ele>28.6</ele>
        <time>2021-03-12T21:12:57Z</time>
      </trkpt>
      <trkpt lat="47.47517" lon="-0.5816">
        <ele>29.8</ele>
        <time>2021-03-12T21:12:59Z</time>
      </trkpt>
      <trkpt lat="47.47524" lon="-0.583">
        <ele>29.2</ele>
        <time>2021-03-12T21:13:14Z</time>
      </trkpt>
      <trkpt lat="47.47519" lon="-0.58307">
        <ele>30.2</ele>
        <time>2021-03-12T21:13:15Z</time>
      </trkpt>
      <trkpt lat="47.47503" lon="-0.58354">
        <ele>30</ele>
        <time>2021-03-12T21:13:21Z</time>
      </trkpt>
      <trkpt lat="47.47487" lon="-0.58563">
        <ele>42.8</ele>
        <time>2021-03-12T21:13:44Z</time>
      </trkpt>
      <trkpt lat="47.47484" lon="-0.5864">
        <ele>42.8</ele>
        <time>2021-03-12T21:13:52Z</time>
      </trkpt>
      <trkpt lat="47.47583" lon="-0.58899">
        <ele>49</ele>
        <time>2021-03-12T21:14:24Z</time>
      </trkpt>
      <trkpt lat="47.47631" lon="-0.59029">
        <ele>49</ele>
        <time>2021-03-12T21:14:40Z</time>
      </trkpt>
      <trkpt lat="47.47633" lon="-0.59041">
        <ele>49</ele>
        <time>2021-03-12T21:14:42Z</time>
      </trkpt>
      <trkpt lat="47.47627" lon="-0.59058">
        <ele>49</ele>
        <time>2021-03-12T21:14:44Z</time>
      </trkpt>
      <trkpt lat="47.47559" lon="-0.59151">
        <ele>50</ele>
        <time>2021-03-12T21:14:59Z</time>
      </trkpt>
      <trkpt lat="47.47547" lon="-0.59161">
        <ele>49.8</ele>
        <time>2021-03-12T21:15:01Z</time>
      </trkpt>
      <trkpt lat="47.47543" lon="-0.59157">
        <ele>49.6</ele>
        <time>2021-03-12T21:15:02Z</time>
      </trkpt>
    </trkseg>
  </trk>
</gpx>